| time (UTC) | temp F | wind direction | speed MPH | gust MPH | rain 1hr in | rain 24hr in | rain mn in | humidity % | barometer mb |
| 20260504160354 | 76 | 93 | 2.0 | 6.0 | 0.00 | 0.00 | 0.00 | 78 | 1007.8 |
| 20260504160253 | 76 | 182 | 2.0 | 6.0 | 0.00 | 0.00 | 0.00 | 78 | 1007.8 |
| 20260504160152 | 76 | 154 | 1.0 | 6.0 | 0.00 | 0.00 | 0.00 | 78 | 1007.8 |
| 20260504151150 | 71 | 114 | 1.0 | 4.0 | 0.00 | 0.00 | 0.00 | 86 | 1008.0 |
| 20260504151051 | 71 | 274 | 0.0 | 4.0 | 0.00 | 0.00 | 0.00 | 86 | 1008.1 |
| 20260504150956 | 71 | 0 | 1.0 | 4.0 | 0.00 | 0.00 | 0.00 | 86 | 1008.0 |
| 20260504150852 | 71 | 0 | 1.0 | 4.0 | 0.00 | 0.00 | 0.00 | 87 | 1007.9 |
| 20260504150751 | 71 | 200 | 1.0 | 4.0 | 0.00 | 0.00 | 0.00 | 87 | 1007.9 |
| 20260504150651 | 71 | 213 | 1.0 | 4.0 | 0.00 | 0.00 | 0.00 | 87 | 1008.0 |
| 20260504150551 | 71 | 228 | 1.0 | 4.0 | 0.00 | 0.00 | 0.00 | 88 | 1008.0 |
| 20260504150450 | 71 | 254 | 2.0 | 4.0 | 0.00 | 0.00 | 0.00 | 88 | 1007.9 |
| 20260504150350 | 70 | 266 | 2.0 | 4.0 | 0.00 | 0.00 | 0.00 | 88 | 1007.9 |
| 20260504150251 | 70 | 299 | 1.0 | 4.0 | 0.00 | 0.00 | 0.00 | 88 | 1007.9 |
| 20260504150150 | 70 | 228 | 1.0 | 4.0 | 0.00 | 0.00 | 0.00 | 88 | 1008.0 |
| 20260504141250 | 63 | 109 | 0.0 | 1.0 | 0.00 | 0.00 | 0.00 | 100 | 1007.9 |
| 20260504141150 | 62 | 32 | 0.0 | 0.0 | 0.00 | 0.00 | 0.00 | 99 | 1007.9 |
| 20260504141049 | 62 | 32 | 0.0 | 0.0 | 0.00 | 0.00 | 0.00 | 99 | 1008.0 |
| 20260504140949 | 62 | 32 | 0.0 | 0.0 | 0.00 | 0.00 | 0.00 | 99 | 1008.0 |
| 20260504140851 | 62 | 32 | 0.0 | 2.0 | 0.00 | 0.00 | 0.00 | 100 | 1007.9 |
| 20260504140749 | 62 | 32 | 0.0 | 2.0 | 0.00 | 0.00 | 0.00 | 100 | 1008.0 |
| 20260504140648 | 62 | 32 | 0.0 | 2.0 | 0.00 | 0.00 | 0.00 | 99 | 1007.9 |
| 20260504140550 | 62 | 32 | 0.0 | 2.0 | 0.00 | 0.00 | 0.00 | 99 | 1007.9 |
| 20260504140448 | 62 | 32 | 0.0 | 2.0 | 0.00 | 0.00 | 0.00 | 99 | 1007.9 |
| 20260504140349 | 61 | 32 | 0.0 | 2.0 | 0.00 | 0.00 | 0.00 | 99 | 1007.9 |
| 20260504140249 | 61 | 32 | 0.0 | 2.0 | 0.00 | 0.00 | 0.00 | 99 | 1008.0 |
| 20260504140150 | 61 | 32 | 0.0 | 2.0 | 0.00 | 0.00 | 0.00 | 99 | 1008.0 |
| 20260504130747 | 57 | 179 | 0.0 | 0.0 | 0.00 | 0.00 | 0.00 | 98 | 1008.0 |
| 20260504130648 | 57 | 179 | 0.0 | 0.0 | 0.00 | 0.00 | 0.00 | 98 | 1008.0 |
| 20260504130547 | 56 | 179 | 0.0 | 0.0 | 0.00 | 0.00 | 0.00 | 97 | 1007.9 |
| 20260504130448 | 56 | 179 | 0.0 | 0.0 | 0.00 | 0.00 | 0.00 | 97 | 1007.9 |
| 20260504130349 | 56 | 179 | 0.0 | 0.0 | 0.00 | 0.00 | 0.00 | 97 | 1007.8 |
| 20260504130248 | 56 | 179 | 0.0 | 0.0 | 0.00 | 0.00 | 0.00 | 97 | 1007.9 |
| 20260504130147 | 56 | 179 | 0.0 | 0.0 | 0.00 | 0.00 | 0.00 | 97 | 1007.9 |
| 20260504120247 | 55 | 179 | 0.0 | 0.0 | 0.00 | 0.00 | 0.00 | 96 | 1007.9 |
| 20260504120146 | 55 | 179 | 0.0 | 0.0 | 0.00 | 0.00 | 0.00 | 96 | 1007.8 |
| 20260504110703 | 56 | 179 | 0.0 | 0.0 | 0.00 | 0.00 | 0.00 | 95 | 1007.4 |
| 20260504110604 | 56 | 179 | 0.0 | 0.0 | 0.00 | 0.00 | 0.00 | 95 | 1007.4 |
| 20260504110538 | 56 | 179 | 0.0 | 0.0 | 0.00 | 0.00 | 0.00 | 95 | 1007.4 |
| 20260504110507 | 56 | 179 | 0.0 | 0.0 | 0.00 | 0.00 | 0.00 | 95 | 1007.4 |
| 20260504110403 | 56 | 179 | 0.0 | 0.0 | 0.00 | 0.00 | 0.00 | 95 | 1007.4 |
| 20260504110302 | 56 | 179 | 0.0 | 0.0 | 0.00 | 0.00 | 0.00 | 95 | 1007.4 |
| 20260504110202 | 56 | 179 | 0.0 | 0.0 | 0.00 | 0.00 | 0.00 | 95 | 1007.4 |
| 20260504100524 | 57 | 179 | 0.0 | 0.0 | 0.00 | 0.00 | 0.00 | 94 | 1007.6 |
| 20260504100416 | 57 | 179 | 0.0 | 0.0 | 0.00 | 0.00 | 0.00 | 94 | 1007.6 |
| 20260504100313 | 57 | 179 | 0.0 | 0.0 | 0.00 | 0.00 | 0.00 | 94 | 1007.7 |
| 20260504100213 | 57 | 179 | 0.0 | 0.0 | 0.00 | 0.00 | 0.00 | 94 | 1007.7 |
| 20260504100111 | 57 | 179 | 0.0 | 0.0 | 0.00 | 0.00 | 0.00 | 94 | 1007.7 |
| 20260504090142 | 58 | 179 | 0.0 | 0.0 | 0.00 | 0.00 | 0.00 | 93 | 1008.1 |
| 20260504081932 | 59 | 179 | 0.0 | 0.0 | 0.00 | 0.00 | 0.00 | 92 | 1008.2 |
| 20260504081832 | 59 | 179 | 0.0 | 0.0 | 0.00 | 0.00 | 0.00 | 92 | 1008.3 |
| 20260504081732 | 59 | 179 | 0.0 | 0.0 | 0.00 | 0.00 | 0.00 | 92 | 1008.3 |
| 20260504081632 | 59 | 179 | 0.0 | 0.0 | 0.00 | 0.00 | 0.00 | 92 | 1008.3 |
| 20260504081523 | 59 | 179 | 0.0 | 0.0 | 0.00 | 0.00 | 0.00 | 92 | 1008.2 |
| 20260504081424 | 59 | 179 | 0.0 | 0.0 | 0.00 | 0.00 | 0.00 | 92 | 1008.2 |
| 20260504081314 | 59 | 179 | 0.0 | 0.0 | 0.00 | 0.00 | 0.00 | 92 | 1008.3 |
| 20260504081219 | 59 | 179 | 0.0 | 0.0 | 0.00 | 0.00 | 0.00 | 92 | 1008.2 |
| 20260504081110 | 59 | 179 | 0.0 | 0.0 | 0.00 | 0.00 | 0.00 | 92 | 1008.2 |
| 20260504081008 | 59 | 179 | 0.0 | 0.0 | 0.00 | 0.00 | 0.00 | 92 | 1008.4 |
| 20260504080905 | 59 | 179 | 0.0 | 0.0 | 0.00 | 0.00 | 0.00 | 92 | 1008.3 |
| 20260504080802 | 59 | 179 | 0.0 | 0.0 | 0.00 | 0.00 | 0.00 | 92 | 1008.4 |
| 20260504080704 | 59 | 179 | 0.0 | 0.0 | 0.00 | 0.00 | 0.00 | 92 | 1008.4 |
| 20260504080603 | 59 | 179 | 0.0 | 0.0 | 0.00 | 0.00 | 0.00 | 92 | 1008.4 |
| 20260504080504 | 59 | 179 | 0.0 | 0.0 | 0.00 | 0.00 | 0.00 | 92 | 1008.3 |
| 20260504080403 | 59 | 179 | 0.0 | 0.0 | 0.00 | 0.00 | 0.00 | 92 | 1008.3 |
| 20260504080302 | 59 | 179 | 0.0 | 0.0 | 0.00 | 0.00 | 0.00 | 92 | 1008.4 |
| 20260504080204 | 59 | 179 | 0.0 | 0.0 | 0.00 | 0.00 | 0.00 | 92 | 1008.4 |
| 20260504080103 | 59 | 179 | 0.0 | 0.0 | 0.00 | 0.00 | 0.00 | 92 | 1008.3 |
| 20260504070403 | 60 | 179 | 0.0 | 0.0 | 0.00 | 0.00 | 0.00 | 89 | 1009.6 |
| 20260504070305 | 60 | 179 | 0.0 | 0.0 | 0.00 | 0.00 | 0.00 | 89 | 1009.6 |
| 20260504070204 | 60 | 179 | 0.0 | 0.0 | 0.00 | 0.00 | 0.00 | 89 | 1009.6 |
| 20260504070103 | 60 | 179 | 0.0 | 0.0 | 0.00 | 0.00 | 0.00 | 89 | 1009.7 |
| 20260504060202 | 60 | 179 | 0.0 | 0.0 | 0.00 | 0.00 | 0.00 | 85 | 1010.0 |
| 20260504060103 | 60 | 179 | 0.0 | 0.0 | 0.00 | 0.00 | 0.00 | 85 | 1010.0 |
| 20260504050703 | 62 | 179 | 0.0 | 0.0 | 0.00 | 0.01 | 0.00 | 82 | 1010.3 |
| 20260504050604 | 62 | 179 | 0.0 | 0.0 | 0.00 | 0.01 | 0.00 | 82 | 1010.3 |
| 20260504050504 | 62 | 179 | 0.0 | 0.0 | 0.00 | 0.01 | 0.00 | 82 | 1010.2 |
| 20260504050402 | 62 | 179 | 0.0 | 0.0 | 0.00 | 0.01 | 0.00 | 82 | 1010.3 |
| 20260504050302 | 62 | 179 | 0.0 | 0.0 | 0.00 | 0.01 | 0.00 | 82 | 1010.3 |
| 20260504050203 | 62 | 179 | 0.0 | 0.0 | 0.00 | 0.01 | 0.00 | 82 | 1010.4 |
| 20260504050104 | 62 | 179 | 0.0 | 0.0 | 0.00 | 0.01 | 0.00 | 82 | 1010.4 |
| 20260504050004 | 62 | 179 | 0.0 | 0.0 | 0.00 | 0.01 | 0.00 | 82 | 1010.4 |
| 20260504045903 | 62 | 179 | 0.0 | 0.0 | 0.00 | 0.01 | 0.00 | 82 | 1010.4 |
| 20260504045803 | 62 | 179 | 0.0 | 0.0 | 0.00 | 0.01 | 0.00 | 82 | 1010.4 |
| 20260504045702 | 62 | 179 | 0.0 | 0.0 | 0.00 | 0.01 | 0.00 | 82 | 1010.4 |
| 20260504045604 | 62 | 179 | 0.0 | 0.0 | 0.00 | 0.01 | 0.00 | 82 | 1010.3 |
| 20260504045502 | 62 | 179 | 0.0 | 0.0 | 0.00 | 0.01 | 0.00 | 82 | 1010.4 |
| 20260504045402 | 62 | 179 | 0.0 | 0.0 | 0.00 | 0.01 | 0.00 | 82 | 1010.3 |
| 20260504045304 | 62 | 179 | 0.0 | 0.0 | 0.00 | 0.01 | 0.00 | 82 | 1010.4 |
| 20260504045203 | 62 | 179 | 0.0 | 0.0 | 0.00 | 0.01 | 0.00 | 82 | 1010.3 |
| 20260504045102 | 62 | 179 | 0.0 | 0.0 | 0.00 | 0.01 | 0.00 | 82 | 1010.4 |
| 20260504045003 | 62 | 179 | 0.0 | 0.0 | 0.00 | 0.01 | 0.00 | 82 | 1010.4 |
| 20260504044902 | 62 | 179 | 0.0 | 0.0 | 0.00 | 0.01 | 0.00 | 82 | 1010.4 |
| 20260504044804 | 62 | 179 | 0.0 | 0.0 | 0.00 | 0.01 | 0.00 | 82 | 1010.4 |
| 20260504044702 | 62 | 179 | 0.0 | 0.0 | 0.00 | 0.01 | 0.00 | 82 | 1010.3 |
| 20260504044602 | 62 | 179 | 0.0 | 0.0 | 0.00 | 0.01 | 0.00 | 82 | 1010.4 |
| 20260504044502 | 62 | 179 | 0.0 | 0.0 | 0.00 | 0.01 | 0.00 | 82 | 1010.4 |
| 20260504044403 | 62 | 179 | 0.0 | 0.0 | 0.00 | 0.01 | 0.00 | 82 | 1010.4 |
| 20260504044304 | 62 | 179 | 0.0 | 0.0 | 0.00 | 0.01 | 0.00 | 82 | 1010.5 |
| 20260504044202 | 62 | 179 | 0.0 | 0.0 | 0.00 | 0.01 | 0.00 | 82 | 1010.5 |
| 20260504044103 | 62 | 179 | 0.0 | 0.0 | 0.00 | 0.01 | 0.00 | 82 | 1010.5 |
| 20260504044003 | 62 | 179 | 0.0 | 0.0 | 0.00 | 0.01 | 0.00 | 82 | 1010.5 |
| 20260504043902 | 62 | 179 | 0.0 | 0.0 | 0.00 | 0.01 | 0.00 | 82 | 1010.5 |
| 20260504043802 | 62 | 179 | 0.0 | 0.0 | 0.00 | 0.01 | 0.00 | 82 | 1010.5 |
| 20260504043702 | 62 | 179 | 0.0 | 0.0 | 0.00 | 0.01 | 0.00 | 82 | 1010.5 |
| 20260504043602 | 62 | 179 | 0.0 | 0.0 | 0.00 | 0.01 | 0.00 | 82 | 1010.6 |
| 20260504043503 | 62 | 179 | 0.0 | 0.0 | 0.00 | 0.01 | 0.00 | 82 | 1010.6 |
| 20260504043404 | 62 | 179 | 0.0 | 0.0 | 0.00 | 0.01 | 0.00 | 82 | 1010.6 |
| 20260504043303 | 62 | 179 | 0.0 | 0.0 | 0.00 | 0.01 | 0.00 | 82 | 1010.6 |
| 20260504043204 | 62 | 179 | 0.0 | 0.0 | 0.00 | 0.01 | 0.00 | 82 | 1010.6 |
| 20260504043102 | 62 | 179 | 0.0 | 0.0 | 0.00 | 0.01 | 0.00 | 82 | 1010.6 |
| 20260504043003 | 62 | 179 | 0.0 | 0.0 | 0.00 | 0.01 | 0.00 | 82 | 1010.6 |
| 20260504042902 | 62 | 179 | 0.0 | 0.0 | 0.00 | 0.01 | 0.00 | 82 | 1010.6 |
| 20260504042803 | 62 | 179 | 0.0 | 0.0 | 0.00 | 0.01 | 0.00 | 82 | 1010.6 |
| 20260504042702 | 62 | 179 | 0.0 | 0.0 | 0.00 | 0.01 | 0.00 | 82 | 1010.6 |
| 20260504042602 | 62 | 179 | 0.0 | 0.0 | 0.00 | 0.01 | 0.00 | 82 | 1010.6 |
| 20260504042503 | 63 | 179 | 0.0 | 0.0 | 0.00 | 0.01 | 0.00 | 82 | 1010.6 |
| 20260504042404 | 63 | 179 | 0.0 | 0.0 | 0.00 | 0.01 | 0.00 | 82 | 1010.6 |
| 20260504042304 | 63 | 179 | 0.0 | 0.0 | 0.00 | 0.01 | 0.00 | 82 | 1010.6 |
| 20260504042204 | 63 | 179 | 0.0 | 0.0 | 0.00 | 0.01 | 0.00 | 82 | 1010.6 |
| 20260504042104 | 63 | 179 | 0.0 | 0.0 | 0.00 | 0.01 | 0.00 | 82 | 1010.5 |
| 20260504042003 | 63 | 179 | 0.0 | 0.0 | 0.00 | 0.01 | 0.00 | 82 | 1010.5 |
| 20260504041904 | 63 | 179 | 0.0 | 0.0 | 0.00 | 0.01 | 0.00 | 82 | 1010.4 |
| 20260504041803 | 63 | 179 | 0.0 | 0.0 | 0.00 | 0.01 | 0.00 | 82 | 1010.5 |
| 20260504041702 | 63 | 179 | 0.0 | 0.0 | 0.00 | 0.01 | 0.00 | 82 | 1010.5 |
| 20260504041603 | 63 | 179 | 0.0 | 0.0 | 0.00 | 0.01 | 0.00 | 82 | 1010.5 |
| 20260504041504 | 63 | 179 | 0.0 | 0.0 | 0.00 | 0.01 | 0.00 | 82 | 1010.5 |
| 20260504041403 | 63 | 179 | 0.0 | 0.0 | 0.00 | 0.01 | 0.00 | 82 | 1010.5 |
| 20260504041302 | 63 | 179 | 0.0 | 0.0 | 0.00 | 0.01 | 0.00 | 82 | 1010.5 |
| 20260504041203 | 63 | 179 | 0.0 | 0.0 | 0.00 | 0.01 | 0.00 | 81 | 1010.6 |
| 20260504041102 | 63 | 179 | 0.0 | 0.0 | 0.00 | 0.01 | 0.00 | 81 | 1010.5 |
| 20260504041006 | 63 | 179 | 0.0 | 0.0 | 0.00 | 0.01 | 0.00 | 81 | 1010.5 |
| 20260504040903 | 63 | 179 | 0.0 | 0.0 | 0.00 | 0.01 | 0.00 | 81 | 1010.5 |
| 20260504040803 | 63 | 179 | 0.0 | 0.0 | 0.00 | 0.01 | 0.00 | 81 | 1010.6 |
| 20260504040705 | 63 | 179 | 0.0 | 0.0 | 0.00 | 0.01 | 0.00 | 81 | 1010.6 |
| 20260504040602 | 63 | 179 | 0.0 | 0.0 | 0.00 | 0.01 | 0.00 | 81 | 1010.5 |
| 20260504040504 | 63 | 179 | 0.0 | 0.0 | 0.00 | 0.01 | 0.00 | 81 | 1010.5 |
| 20260504040403 | 63 | 179 | 0.0 | 0.0 | 0.00 | 0.01 | 0.00 | 81 | 1010.5 |
| 20260504040303 | 63 | 179 | 0.0 | 0.0 | 0.00 | 0.01 | 0.00 | 81 | 1010.6 |
| 20260504040204 | 63 | 179 | 0.0 | 0.0 | 0.00 | 0.01 | 0.00 | 81 | 1010.6 |
| 20260504040053 | 63 | 179 | 0.0 | 0.0 | 0.00 | 0.01 | 0.00 | 81 | 1010.6 |
| 20260504035951 | 63 | 179 | 0.0 | 1.0 | 0.00 | 0.01 | 0.01 | 81 | 1010.6 |
| 20260504035846 | 63 | 179 | 0.0 | 1.0 | 0.00 | 0.01 | 0.01 | 81 | 1010.7 |
| 20260504035748 | 63 | 179 | 0.0 | 1.0 | 0.00 | 0.01 | 0.01 | 81 | 1010.5 |
| 20260504035644 | 63 | 179 | 0.0 | 1.0 | 0.00 | 0.01 | 0.01 | 81 | 1010.6 |
| 20260504035546 | 63 | 179 | 0.0 | 2.0 | 0.00 | 0.01 | 0.01 | 81 | 1010.5 |
| 20260504035444 | 63 | 179 | 0.0 | 2.0 | 0.00 | 0.01 | 0.01 | 81 | 1010.5 |
| 20260504035343 | 63 | 179 | 0.0 | 2.0 | 0.00 | 0.01 | 0.01 | 81 | 1010.5 |
| 20260504035242 | 63 | 179 | 0.0 | 2.0 | 0.00 | 0.01 | 0.01 | 81 | 1010.5 |
| 20260504035131 | 63 | 179 | 0.0 | 2.0 | 0.00 | 0.01 | 0.01 | 81 | 1010.5 |
| 20260504035031 | 64 | 179 | 0.0 | 2.0 | 0.00 | 0.01 | 0.01 | 81 | 1010.5 |
| 20260504034931 | 64 | 179 | 0.0 | 2.0 | 0.00 | 0.01 | 0.01 | 81 | 1010.5 |
| 20260504034831 | 64 | 179 | 0.0 | 2.0 | 0.00 | 0.01 | 0.01 | 81 | 1010.5 |
| 20260504034732 | 64 | 176 | 0.0 | 2.0 | 0.00 | 0.01 | 0.01 | 81 | 1010.7 |
| 20260504034630 | 64 | 212 | 0.0 | 0.0 | 0.00 | 0.01 | 0.01 | 81 | 1010.6 |
| 20260504034529 | 64 | 210 | 0.0 | 0.0 | 0.00 | 0.01 | 0.01 | 81 | 1010.6 |
| 20260504034428 | 64 | 210 | 0.0 | 0.0 | 0.00 | 0.01 | 0.01 | 81 | 1010.6 |
| 20260504034327 | 64 | 207 | 0.0 | 0.0 | 0.00 | 0.01 | 0.01 | 81 | 1010.5 |
| 20260504034227 | 64 | 207 | 0.0 | 0.0 | 0.00 | 0.01 | 0.01 | 81 | 1010.5 |
| 20260504034128 | 64 | 207 | 0.0 | 0.0 | 0.00 | 0.01 | 0.01 | 81 | 1010.5 |
| 20260504034028 | 64 | 207 | 0.0 | 0.0 | 0.00 | 0.01 | 0.01 | 81 | 1010.5 |
| 20260504033928 | 64 | 207 | 0.0 | 0.0 | 0.00 | 0.01 | 0.01 | 81 | 1010.5 |
| 20260504033830 | 64 | 207 | 0.0 | 0.0 | 0.00 | 0.01 | 0.01 | 81 | 1010.5 |
| 20260504033729 | 64 | 207 | 0.0 | 0.0 | 0.00 | 0.01 | 0.01 | 81 | 1010.4 |
| 20260504033628 | 64 | 207 | 0.0 | 0.0 | 0.00 | 0.01 | 0.01 | 81 | 1010.4 |
| 20260504033529 | 64 | 207 | 0.0 | 0.0 | 0.00 | 0.01 | 0.01 | 81 | 1010.4 |
| 20260504033428 | 64 | 207 | 0.0 | 0.0 | 0.00 | 0.01 | 0.01 | 81 | 1010.4 |
| 20260504033327 | 64 | 207 | 0.0 | 0.0 | 0.00 | 0.01 | 0.01 | 81 | 1010.5 |
| 20260504033229 | 64 | 207 | 0.0 | 0.0 | 0.00 | 0.01 | 0.01 | 81 | 1010.5 |
| 20260504033127 | 64 | 207 | 0.0 | 0.0 | 0.00 | 0.01 | 0.01 | 81 | 1010.4 |
| 20260504033027 | 64 | 207 | 0.0 | 0.0 | 0.00 | 0.01 | 0.01 | 81 | 1010.4 |
| 20260504032927 | 64 | 207 | 0.0 | 0.0 | 0.00 | 0.01 | 0.01 | 81 | 1010.5 |
| 20260504032827 | 64 | 207 | 0.0 | 0.0 | 0.00 | 0.01 | 0.01 | 81 | 1010.6 |
| 20260504032727 | 64 | 207 | 0.0 | 0.0 | 0.00 | 0.01 | 0.01 | 81 | 1010.5 |
| 20260504032629 | 64 | 207 | 0.0 | 0.0 | 0.00 | 0.01 | 0.01 | 81 | 1010.5 |
| 20260504032528 | 64 | 207 | 0.0 | 0.0 | 0.00 | 0.01 | 0.01 | 81 | 1010.5 |
| 20260504032425 | 64 | 207 | 0.0 | 0.0 | 0.00 | 0.01 | 0.01 | 81 | 1010.4 |
| 20260504032320 | 64 | 207 | 0.0 | 0.0 | 0.00 | 0.01 | 0.01 | 81 | 1010.5 |
| 20260504032218 | 64 | 207 | 0.0 | 0.0 | 0.00 | 0.01 | 0.01 | 81 | 1010.4 |
| 20260504032113 | 64 | 207 | 0.0 | 0.0 | 0.00 | 0.01 | 0.01 | 81 | 1010.4 |
| 20260504032012 | 64 | 207 | 0.0 | 0.0 | 0.00 | 0.01 | 0.01 | 81 | 1010.4 |
| 20260504031907 | 64 | 207 | 0.0 | 0.0 | 0.00 | 0.01 | 0.01 | 81 | 1010.4 |
| 20260504031807 | 64 | 207 | 0.0 | 0.0 | 0.00 | 0.01 | 0.01 | 81 | 1010.4 |
| 20260504031704 | 64 | 207 | 0.0 | 0.0 | 0.00 | 0.01 | 0.01 | 81 | 1010.3 |
| 20260504031603 | 64 | 207 | 0.0 | 0.0 | 0.00 | 0.01 | 0.01 | 81 | 1010.3 |
| 20260504031502 | 65 | 207 | 0.0 | 0.0 | 0.00 | 0.01 | 0.01 | 81 | 1010.3 |
| 20260504031402 | 65 | 207 | 0.0 | 0.0 | 0.00 | 0.01 | 0.01 | 81 | 1010.3 |
| 20260504031303 | 65 | 207 | 0.0 | 0.0 | 0.00 | 0.01 | 0.01 | 81 | 1010.4 |
| 20260504031200 | 65 | 207 | 0.0 | 0.0 | 0.00 | 0.01 | 0.01 | 81 | 1010.4 |
| 20260504031059 | 65 | 207 | 0.0 | 0.0 | 0.00 | 0.01 | 0.01 | 81 | 1010.3 |
| 20260504030957 | 65 | 207 | 0.0 | 0.0 | 0.00 | 0.01 | 0.01 | 81 | 1010.3 |
| 20260504030854 | 65 | 207 | 0.0 | 0.0 | 0.00 | 0.01 | 0.01 | 80 | 1010.3 |
| 20260504030750 | 65 | 207 | 0.0 | 0.0 | 0.00 | 0.01 | 0.01 | 80 | 1010.3 |
| 20260504030650 | 65 | 207 | 0.0 | 0.0 | 0.00 | 0.01 | 0.01 | 80 | 1010.4 |
| 20260504030544 | 65 | 207 | 0.0 | 0.0 | 0.00 | 0.01 | 0.01 | 80 | 1010.3 |
| 20260504030439 | 65 | 207 | 0.0 | 0.0 | 0.00 | 0.01 | 0.01 | 80 | 1010.2 |
| 20260504030335 | 65 | 207 | 0.0 | 0.0 | 0.00 | 0.01 | 0.01 | 80 | 1010.3 |
| 20260504030232 | 65 | 207 | 0.0 | 0.0 | 0.00 | 0.01 | 0.01 | 80 | 1010.2 |
| 20260504030132 | 65 | 207 | 0.0 | 0.0 | 0.00 | 0.01 | 0.01 | 80 | 1010.2 |
| 20260504030041 | 65 | 207 | 0.0 | 0.0 | 0.00 | 0.01 | 0.01 | 80 | 1010.3 |
| 20260504025927 | 65 | 207 | 0.0 | 0.0 | 0.00 | 0.01 | 0.01 | 80 | 1010.2 |
| 20260504025826 | 65 | 207 | 0.0 | 0.0 | 0.00 | 0.01 | 0.01 | 80 | 1010.2 |
| 20260504025727 | 65 | 207 | 0.0 | 0.0 | 0.00 | 0.01 | 0.01 | 80 | 1010.2 |
| 20260504025628 | 65 | 207 | 0.0 | 0.0 | 0.00 | 0.01 | 0.01 | 80 | 1010.2 |
| 20260504025528 | 65 | 207 | 0.0 | 0.0 | 0.00 | 0.01 | 0.01 | 80 | 1010.2 |
| 20260504025426 | 65 | 207 | 0.0 | 0.0 | 0.00 | 0.01 | 0.01 | 80 | 1010.1 |
| 20260504025327 | 65 | 207 | 0.0 | 0.0 | 0.00 | 0.01 | 0.01 | 80 | 1010.2 |
| 20260504025228 | 65 | 207 | 0.0 | 0.0 | 0.00 | 0.01 | 0.01 | 80 | 1010.1 |
| 20260504025126 | 65 | 207 | 0.0 | 0.0 | 0.00 | 0.01 | 0.01 | 80 | 1010.2 |
| 20260504025028 | 65 | 207 | 0.0 | 1.0 | 0.00 | 0.01 | 0.01 | 80 | 1010.2 |
| 20260504024927 | 65 | 207 | 0.0 | 1.0 | 0.00 | 0.01 | 0.01 | 80 | 1010.2 |
| 20260504024827 | 65 | 207 | 0.0 | 1.0 | 0.00 | 0.01 | 0.01 | 80 | 1010.1 |
| 20260504024726 | 65 | 204 | 0.0 | 1.0 | 0.00 | 0.01 | 0.01 | 80 | 1010.2 |
| 20260504024626 | 65 | 204 | 0.0 | 1.0 | 0.00 | 0.01 | 0.01 | 81 | 1010.2 |
| 20260504024527 | 65 | 204 | 0.0 | 1.0 | 0.00 | 0.01 | 0.01 | 81 | 1010.1 |
| 20260504024428 | 65 | 204 | 0.0 | 1.0 | 0.00 | 0.01 | 0.01 | 80 | 1010.2 |
| 20260504024331 | 65 | 204 | 0.0 | 1.0 | 0.00 | 0.01 | 0.01 | 81 | 1010.1 |
| 20260504024215 | 66 | 204 | 0.0 | 1.0 | 0.00 | 0.01 | 0.01 | 81 | 1010.1 |
| 20260504024111 | 66 | 204 | 0.0 | 1.0 | 0.00 | 0.01 | 0.01 | 81 | 1010.0 |
| 20260504024003 | 66 | 204 | 0.0 | 1.0 | 0.00 | 0.01 | 0.01 | 80 | 1010.0 |
| 20260504023904 | 66 | 204 | 0.0 | 1.0 | 0.00 | 0.01 | 0.01 | 80 | 1010.0 |
| 20260504023804 | 66 | 204 | 0.0 | 1.0 | 0.00 | 0.01 | 0.01 | 80 | 1009.9 |
| 20260504023703 | 66 | 204 | 0.0 | 1.0 | 0.00 | 0.01 | 0.01 | 80 | 1010.0 |
| 20260504023603 | 66 | 204 | 0.0 | 1.0 | 0.00 | 0.01 | 0.01 | 80 | 1010.0 |
| 20260504023503 | 66 | 204 | 0.0 | 1.0 | 0.00 | 0.01 | 0.01 | 79 | 1009.9 |
| 20260504023402 | 66 | 203 | 0.0 | 0.0 | 0.00 | 0.01 | 0.01 | 79 | 1009.9 |
| 20260504023303 | 66 | 203 | 0.0 | 0.0 | 0.00 | 0.01 | 0.01 | 79 | 1010.0 |
| 20260504023203 | 66 | 203 | 0.0 | 0.0 | 0.00 | 0.01 | 0.01 | 79 | 1009.9 |
| 20260504023103 | 66 | 203 | 0.0 | 0.0 | 0.00 | 0.01 | 0.01 | 79 | 1010.0 |
| 20260504023005 | 66 | 203 | 0.0 | 0.0 | 0.00 | 0.01 | 0.01 | 79 | 1009.9 |
| 20260504022903 | 66 | 203 | 0.0 | 0.0 | 0.00 | 0.01 | 0.01 | 79 | 1009.9 |
| 20260504022805 | 66 | 203 | 0.0 | 0.0 | 0.00 | 0.01 | 0.01 | 79 | 1009.9 |
| 20260504022703 | 66 | 203 | 0.0 | 0.0 | 0.00 | 0.01 | 0.01 | 79 | 1009.9 |
| 20260504022604 | 66 | 203 | 0.0 | 0.0 | 0.00 | 0.01 | 0.01 | 79 | 1009.9 |
| 20260504022503 | 67 | 203 | 0.0 | 0.0 | 0.00 | 0.01 | 0.01 | 79 | 1009.8 |
| 20260504022403 | 67 | 203 | 0.0 | 0.0 | 0.00 | 0.01 | 0.01 | 79 | 1009.9 |
| 20260504022304 | 67 | 203 | 0.0 | 0.0 | 0.00 | 0.01 | 0.01 | 79 | 1009.9 |
| 20260504022204 | 67 | 203 | 0.0 | 0.0 | 0.00 | 0.01 | 0.01 | 78 | 1010.0 |
| 20260504022102 | 67 | 203 | 0.0 | 0.0 | 0.00 | 0.01 | 0.01 | 78 | 1009.9 |
| 20260504022004 | 67 | 203 | 0.0 | 0.0 | 0.00 | 0.01 | 0.01 | 78 | 1010.0 |
| 20260504021902 | 67 | 203 | 0.0 | 0.0 | 0.00 | 0.01 | 0.01 | 78 | 1009.9 |
| 20260504021802 | 67 | 203 | 0.0 | 0.0 | 0.00 | 0.01 | 0.01 | 78 | 1010.0 |
| 20260504021704 | 67 | 203 | 0.0 | 0.0 | 0.00 | 0.01 | 0.01 | 78 | 1010.0 |
| 20260504021603 | 67 | 203 | 0.0 | 0.0 | 0.00 | 0.01 | 0.01 | 78 | 1009.9 |
| 20260504021502 | 67 | 203 | 0.0 | 0.0 | 0.00 | 0.01 | 0.01 | 78 | 1009.9 |
| 20260504021402 | 67 | 203 | 0.0 | 0.0 | 0.00 | 0.01 | 0.01 | 78 | 1009.9 |
| 20260504021303 | 67 | 203 | 0.0 | 0.0 | 0.00 | 0.01 | 0.01 | 78 | 1009.9 |
| 20260504021202 | 67 | 203 | 0.0 | 0.0 | 0.00 | 0.01 | 0.01 | 78 | 1009.9 |
| 20260504021102 | 67 | 203 | 0.0 | 0.0 | 0.00 | 0.01 | 0.01 | 78 | 1009.9 |
| 20260504021002 | 67 | 203 | 0.0 | 0.0 | 0.00 | 0.01 | 0.01 | 78 | 1009.9 |
| 20260504020905 | 68 | 203 | 0.0 | 0.0 | 0.00 | 0.01 | 0.01 | 76 | 1009.9 |
| 20260504020803 | 68 | 203 | 0.0 | 0.0 | 0.00 | 0.01 | 0.01 | 76 | 1009.9 |
| 20260504020703 | 68 | 203 | 0.0 | 0.0 | 0.00 | 0.01 | 0.01 | 76 | 1009.9 |
| 20260504020603 | 68 | 203 | 0.0 | 0.0 | 0.00 | 0.01 | 0.01 | 76 | 1009.8 |
| 20260504020502 | 68 | 203 | 0.0 | 0.0 | 0.00 | 0.01 | 0.01 | 76 | 1009.8 |
| 20260504020403 | 68 | 203 | 0.0 | 0.0 | 0.00 | 0.01 | 0.01 | 76 | 1009.8 |
| 20260504020303 | 68 | 203 | 0.0 | 0.0 | 0.00 | 0.01 | 0.01 | 76 | 1009.8 |
| 20260504020202 | 68 | 203 | 0.0 | 0.0 | 0.00 | 0.01 | 0.01 | 76 | 1009.8 |
| 20260504020104 | 68 | 203 | 0.0 | 0.0 | 0.00 | 0.01 | 0.01 | 76 | 1009.8 |
| 20260504020003 | 68 | 203 | 0.0 | 0.0 | 0.00 | 0.01 | 0.01 | 76 | 1009.7 |
| 20260504015902 | 68 | 203 | 0.0 | 0.0 | 0.00 | 0.01 | 0.01 | 76 | 1009.8 |
| 20260504015803 | 68 | 203 | 0.0 | 0.0 | 0.00 | 0.01 | 0.01 | 76 | 1009.7 |
| 20260504015701 | 69 | 203 | 0.0 | 0.0 | 0.00 | 0.01 | 0.01 | 76 | 1009.8 |
| 20260504015602 | 69 | 203 | 0.0 | 0.0 | 0.00 | 0.01 | 0.01 | 76 | 1009.8 |
| 20260504015503 | 69 | 203 | 0.0 | 0.0 | 0.00 | 0.01 | 0.01 | 76 | 1009.7 |
| 20260504015404 | 69 | 203 | 0.0 | 0.0 | 0.00 | 0.01 | 0.01 | 76 | 1009.7 |
| 20260504015304 | 69 | 203 | 0.0 | 0.0 | 0.00 | 0.01 | 0.01 | 76 | 1009.7 |
| 20260504015158 | 69 | 203 | 0.0 | 0.0 | 0.00 | 0.01 | 0.01 | 76 | 1009.8 |
| 20260504015053 | 69 | 203 | 0.0 | 0.0 | 0.00 | 0.01 | 0.01 | 76 | 1009.7 |
| 20260504014948 | 69 | 203 | 0.0 | 0.0 | 0.00 | 0.01 | 0.01 | 76 | 1009.7 |
| 20260504014844 | 69 | 203 | 0.0 | 0.0 | 0.00 | 0.01 | 0.01 | 76 | 1009.7 |
| 20260504014737 | 69 | 203 | 0.0 | 0.0 | 0.00 | 0.01 | 0.01 | 76 | 1009.7 |
| 20260504014634 | 69 | 203 | 0.0 | 0.0 | 0.00 | 0.01 | 0.01 | 76 | 1009.6 |
| 20260504014531 | 69 | 203 | 0.0 | 0.0 | 0.00 | 0.01 | 0.01 | 74 | 1009.5 |
| 20260504014433 | 69 | 203 | 0.0 | 0.0 | 0.00 | 0.01 | 0.01 | 74 | 1009.5 |
| 20260504014333 | 70 | 203 | 0.0 | 0.0 | 0.00 | 0.01 | 0.01 | 74 | 1009.5 |
| 20260504014231 | 70 | 203 | 0.0 | 0.0 | 0.00 | 0.01 | 0.01 | 74 | 1009.5 |
| 20260504014133 | 70 | 203 | 0.0 | 0.0 | 0.00 | 0.01 | 0.01 | 74 | 1009.4 |
| 20260504014032 | 70 | 203 | 0.0 | 0.0 | 0.00 | 0.01 | 0.01 | 74 | 1009.5 |
| 20260504013932 | 70 | 203 | 0.0 | 0.0 | 0.00 | 0.01 | 0.01 | 74 | 1009.5 |
| 20260504013832 | 70 | 203 | 0.0 | 0.0 | 0.00 | 0.01 | 0.01 | 74 | 1009.6 |
| 20260504013733 | 70 | 203 | 0.0 | 0.0 | 0.00 | 0.01 | 0.01 | 74 | 1009.5 |
| 20260504013633 | 70 | 203 | 0.0 | 0.0 | 0.00 | 0.01 | 0.01 | 74 | 1009.5 |
| 20260504013525 | 70 | 203 | 0.0 | 0.0 | 0.00 | 0.01 | 0.01 | 74 | 1009.5 |
| 20260504013427 | 70 | 203 | 0.0 | 0.0 | 0.00 | 0.01 | 0.01 | 74 | 1009.5 |
| 20260504013325 | 70 | 203 | 0.0 | 0.0 | 0.00 | 0.01 | 0.01 | 74 | 1009.5 |
| 20260504013226 | 70 | 203 | 0.0 | 0.0 | 0.00 | 0.01 | 0.01 | 74 | 1009.6 |
| 20260504013125 | 71 | 203 | 0.0 | 0.0 | 0.00 | 0.01 | 0.01 | 74 | 1009.5 |
| 20260504013025 | 71 | 203 | 0.0 | 0.0 | 0.00 | 0.01 | 0.01 | 74 | 1009.5 |
| 20260504012926 | 71 | 203 | 0.0 | 0.0 | 0.00 | 0.01 | 0.01 | 74 | 1009.6 |
| 20260504012825 | 71 | 203 | 0.0 | 0.0 | 0.00 | 0.01 | 0.01 | 74 | 1009.5 |
| 20260504012724 | 71 | 203 | 0.0 | 0.0 | 0.00 | 0.01 | 0.01 | 74 | 1009.4 |
| 20260504012627 | 71 | 203 | 0.0 | 0.0 | 0.00 | 0.01 | 0.01 | 74 | 1009.5 |
| 20260504012527 | 71 | 203 | 0.0 | 0.0 | 0.00 | 0.01 | 0.01 | 74 | 1009.5 |
| 20260504012427 | 71 | 203 | 0.0 | 0.0 | 0.00 | 0.01 | 0.01 | 74 | 1009.5 |
| 20260504012320 | 71 | 203 | 0.0 | 0.0 | 0.00 | 0.01 | 0.01 | 73 | 1009.4 |
| 20260504012216 | 71 | 203 | 0.0 | 0.0 | 0.00 | 0.01 | 0.01 | 73 | 1009.4 |
| 20260504012113 | 71 | 203 | 0.0 | 0.0 | 0.00 | 0.01 | 0.01 | 73 | 1009.5 |
| 20260504012012 | 71 | 203 | 0.0 | 0.0 | 0.00 | 0.01 | 0.01 | 73 | 1009.5 |
| 20260504011911 | 71 | 203 | 0.0 | 0.0 | 0.00 | 0.01 | 0.01 | 73 | 1009.4 |
| 20260504011802 | 72 | 203 | 0.0 | 0.0 | 0.00 | 0.01 | 0.01 | 73 | 1009.4 |
| 20260504011703 | 72 | 203 | 0.0 | 0.0 | 0.00 | 0.01 | 0.01 | 73 | 1009.5 |
| 20260504011602 | 72 | 203 | 0.0 | 0.0 | 0.00 | 0.01 | 0.01 | 73 | 1009.5 |
| 20260504011502 | 72 | 203 | 0.0 | 0.0 | 0.00 | 0.01 | 0.01 | 73 | 1009.4 |
| 20260504011404 | 72 | 203 | 0.0 | 0.0 | 0.00 | 0.01 | 0.01 | 73 | 1009.4 |
| 20260504011303 | 72 | 203 | 0.0 | 0.0 | 0.00 | 0.01 | 0.01 | 73 | 1009.4 |
| 20260504011202 | 72 | 203 | 0.0 | 0.0 | 0.00 | 0.01 | 0.01 | 73 | 1009.4 |
| 20260504011104 | 72 | 203 | 0.0 | 0.0 | 0.00 | 0.01 | 0.01 | 73 | 1009.4 |
| 20260504011004 | 72 | 203 | 0.0 | 0.0 | 0.00 | 0.01 | 0.01 | 73 | 1009.4 |
| 20260504010905 | 72 | 203 | 0.0 | 0.0 | 0.00 | 0.01 | 0.01 | 73 | 1009.3 |
| 20260504010804 | 72 | 203 | 0.0 | 0.0 | 0.00 | 0.01 | 0.01 | 73 | 1009.3 |
| 20260504010702 | 73 | 203 | 0.0 | 0.0 | 0.00 | 0.01 | 0.01 | 73 | 1009.3 |
| 20260504010603 | 73 | 203 | 0.0 | 0.0 | 0.00 | 0.01 | 0.01 | 72 | 1009.3 |
| 20260504010503 | 73 | 203 | 0.0 | 0.0 | 0.00 | 0.01 | 0.01 | 72 | 1009.3 |
| 20260504010402 | 73 | 203 | 0.0 | 0.0 | 0.00 | 0.01 | 0.01 | 72 | 1009.3 |
| 20260504010303 | 73 | 203 | 0.0 | 0.0 | 0.00 | 0.01 | 0.01 | 72 | 1009.3 |
| 20260504010202 | 73 | 203 | 0.0 | 0.0 | 0.00 | 0.01 | 0.01 | 72 | 1009.3 |
| 20260504010004 | 73 | 203 | 0.0 | 0.0 | 0.00 | 0.01 | 0.01 | 72 | 1009.3 |
| 20260504005903 | 73 | 203 | 0.0 | 0.0 | 0.00 | 0.01 | 0.01 | 72 | 1009.3 |
| 20260504005802 | 73 | 203 | 0.0 | 0.0 | 0.00 | 0.01 | 0.01 | 72 | 1009.4 |
| 20260504005704 | 73 | 203 | 0.0 | 0.0 | 0.00 | 0.01 | 0.01 | 72 | 1009.4 |
| 20260504005604 | 73 | 203 | 0.0 | 0.0 | 0.00 | 0.01 | 0.01 | 72 | 1009.4 |
| 20260504005504 | 73 | 203 | 0.0 | 0.0 | 0.00 | 0.01 | 0.01 | 72 | 1009.5 |
| 20260504005403 | 74 | 203 | 0.0 | 0.0 | 0.00 | 0.01 | 0.01 | 72 | 1009.4 |
| 20260504005305 | 74 | 203 | 0.0 | 0.0 | 0.00 | 0.01 | 0.01 | 72 | 1009.4 |
| 20260504005202 | 74 | 203 | 0.0 | 0.0 | 0.00 | 0.01 | 0.01 | 72 | 1009.4 |
| 20260504005106 | 74 | 203 | 0.0 | 0.0 | 0.00 | 0.01 | 0.01 | 72 | 1009.4 |
| 20260504005004 | 74 | 203 | 0.0 | 0.0 | 0.00 | 0.01 | 0.01 | 72 | 1009.4 |
| 20260504004902 | 74 | 203 | 0.0 | 0.0 | 0.00 | 0.01 | 0.01 | 72 | 1009.4 |
| 20260504004803 | 74 | 203 | 0.0 | 0.0 | 0.00 | 0.01 | 0.01 | 72 | 1009.4 |
| 20260504004703 | 74 | 203 | 0.0 | 0.0 | 0.00 | 0.01 | 0.01 | 72 | 1009.4 |
| 20260504004604 | 74 | 203 | 0.0 | 0.0 | 0.00 | 0.01 | 0.01 | 72 | 1009.4 |
| 20260504004504 | 74 | 203 | 0.0 | 0.0 | 0.00 | 0.01 | 0.01 | 72 | 1009.4 |
| 20260504004405 | 74 | 203 | 0.0 | 0.0 | 0.00 | 0.01 | 0.01 | 72 | 1009.4 |
| 20260504004303 | 74 | 203 | 0.0 | 0.0 | 0.00 | 0.01 | 0.01 | 72 | 1009.4 |
| 20260504004204 | 74 | 203 | 0.0 | 0.0 | 0.00 | 0.01 | 0.01 | 72 | 1009.4 |
| 20260504004104 | 75 | 203 | 0.0 | 0.0 | 0.00 | 0.01 | 0.01 | 72 | 1009.5 |
| 20260504004003 | 75 | 203 | 0.0 | 0.0 | 0.00 | 0.01 | 0.01 | 72 | 1009.4 |
| 20260504003903 | 75 | 203 | 0.0 | 0.0 | 0.00 | 0.01 | 0.01 | 71 | 1009.4 |
| 20260504003803 | 75 | 203 | 0.0 | 0.0 | 0.00 | 0.01 | 0.01 | 71 | 1009.4 |
| 20260504003703 | 75 | 203 | 0.0 | 0.0 | 0.00 | 0.01 | 0.01 | 71 | 1009.4 |
| 20260504003602 | 75 | 203 | 0.0 | 0.0 | 0.00 | 0.01 | 0.01 | 71 | 1009.4 |
| 20260504003503 | 75 | 203 | 0.0 | 0.0 | 0.00 | 0.01 | 0.01 | 71 | 1009.4 |
| 20260504003403 | 75 | 203 | 0.0 | 0.0 | 0.00 | 0.01 | 0.01 | 71 | 1009.4 |
| 20260504003302 | 75 | 203 | 0.0 | 0.0 | 0.00 | 0.01 | 0.01 | 71 | 1009.5 |
| 20260504003203 | 75 | 203 | 0.0 | 0.0 | 0.00 | 0.01 | 0.01 | 71 | 1009.5 |
| 20260504003102 | 75 | 203 | 0.0 | 0.0 | 0.00 | 0.01 | 0.01 | 71 | 1009.5 |
| 20260504003003 | 75 | 203 | 0.0 | 0.0 | 0.00 | 0.01 | 0.01 | 71 | 1009.5 |
| 20260504002903 | 76 | 203 | 0.0 | 0.0 | 0.00 | 0.01 | 0.01 | 71 | 1009.5 |
| 20260504002802 | 76 | 203 | 0.0 | 0.0 | 0.00 | 0.01 | 0.01 | 71 | 1009.5 |
| 20260504002704 | 76 | 203 | 0.0 | 0.0 | 0.00 | 0.01 | 0.01 | 71 | 1009.5 |
| 20260504002604 | 76 | 203 | 0.0 | 0.0 | 0.00 | 0.01 | 0.01 | 71 | 1009.5 |
| 20260504002508 | 76 | 203 | 0.0 | 0.0 | 0.00 | 0.01 | 0.01 | 71 | 1009.5 |
| 20260504002402 | 76 | 203 | 0.0 | 0.0 | 0.00 | 0.01 | 0.01 | 71 | 1009.5 |
| 20260504002305 | 76 | 203 | 0.0 | 0.0 | 0.00 | 0.01 | 0.01 | 71 | 1009.6 |
| 20260504002204 | 76 | 203 | 0.0 | 0.0 | 0.00 | 0.01 | 0.01 | 71 | 1009.5 |
| 20260504002103 | 76 | 203 | 0.0 | 0.0 | 0.00 | 0.01 | 0.01 | 71 | 1009.6 |
| 20260504002004 | 76 | 203 | 0.0 | 0.0 | 0.00 | 0.01 | 0.01 | 71 | 1009.6 |
| 20260504001903 | 76 | 203 | 0.0 | 0.0 | 0.00 | 0.01 | 0.01 | 71 | 1009.6 |
| 20260504001803 | 76 | 203 | 0.0 | 0.0 | 0.00 | 0.01 | 0.01 | 71 | 1009.6 |
| 20260504001659 | 76 | 203 | 0.0 | 0.0 | 0.00 | 0.01 | 0.01 | 71 | 1009.5 |
| 20260504001558 | 76 | 203 | 0.0 | 0.0 | 0.00 | 0.01 | 0.01 | 71 | 1009.6 |
| 20260504001457 | 76 | 203 | 0.0 | 0.0 | 0.00 | 0.01 | 0.01 | 71 | 1009.5 |
| 20260504001355 | 76 | 203 | 0.0 | 0.0 | 0.00 | 0.01 | 0.01 | 71 | 1009.5 |
| 20260504001253 | 76 | 203 | 0.0 | 0.0 | 0.00 | 0.01 | 0.01 | 71 | 1009.6 |
| 20260504001146 | 76 | 203 | 0.0 | 0.0 | 0.00 | 0.01 | 0.01 | 71 | 1009.6 |
| 20260504001034 | 76 | 203 | 0.0 | 0.0 | 0.00 | 0.01 | 0.01 | 71 | 1009.5 |
| 20260504000932 | 76 | 203 | 0.0 | 0.0 | 0.00 | 0.01 | 0.01 | 71 | 1009.6 |
| 20260504000832 | 76 | 203 | 0.0 | 1.0 | 0.00 | 0.01 | 0.01 | 71 | 1009.5 |
| 20260504000731 | 76 | 203 | 0.0 | 1.0 | 0.00 | 0.01 | 0.01 | 71 | 1009.5 |
| 20260504000632 | 76 | 203 | 0.0 | 1.0 | 0.00 | 0.01 | 0.01 | 70 | 1009.5 |
| 20260504000532 | 76 | 203 | 0.0 | 1.0 | 0.00 | 0.01 | 0.01 | 70 | 1009.4 |
| 20260504000432 | 76 | 203 | 0.0 | 1.0 | 0.00 | 0.01 | 0.01 | 70 | 1009.4 |
| 20260504000332 | 77 | 203 | 0.0 | 1.0 | 0.00 | 0.01 | 0.01 | 70 | 1009.4 |
| 20260504000233 | 77 | 203 | 0.0 | 1.0 | 0.00 | 0.01 | 0.01 | 70 | 1009.4 |
| 20260504000132 | 77 | 203 | 0.0 | 1.0 | 0.00 | 0.01 | 0.01 | 70 | 1009.5 |
| 20260504000025 | 77 | 203 | 0.0 | 1.0 | 0.00 | 0.01 | 0.01 | 70 | 1009.5 |
| 20260503235926 | 77 | 203 | 0.0 | 1.0 | 0.00 | 0.01 | 0.01 | 70 | 1009.6 |
| 20260503235822 | 77 | 203 | 0.0 | 1.0 | 0.00 | 0.01 | 0.01 | 70 | 1009.5 |
| 20260503235722 | 77 | 203 | 0.0 | 1.0 | 0.00 | 0.01 | 0.01 | 70 | 1009.7 |
| 20260503235624 | 77 | 203 | 0.0 | 2.0 | 0.00 | 0.01 | 0.01 | 70 | 1009.5 |
| 20260503235523 | 77 | 203 | 0.0 | 2.0 | 0.00 | 0.01 | 0.01 | 70 | 1009.6 |
| 20260503235422 | 77 | 203 | 0.0 | 2.0 | 0.00 | 0.01 | 0.01 | 70 | 1009.6 |
| 20260503235323 | 77 | 203 | 0.0 | 2.0 | 0.00 | 0.01 | 0.01 | 69 | 1009.7 |
| 20260503235224 | 77 | 203 | 0.0 | 2.0 | 0.00 | 0.01 | 0.01 | 69 | 1009.6 |
| 20260503235123 | 77 | 203 | 0.0 | 2.0 | 0.00 | 0.01 | 0.01 | 69 | 1009.7 |
| 20260503235024 | 77 | 203 | 0.0 | 2.0 | 0.00 | 0.01 | 0.01 | 69 | 1009.6 |
| 20260503234923 | 77 | 203 | 1.0 | 2.0 | 0.00 | 0.01 | 0.01 | 69 | 1009.7 |
| 20260503234824 | 77 | 183 | 1.0 | 2.0 | 0.00 | 0.01 | 0.01 | 69 | 1009.7 |
| 20260503234723 | 77 | 185 | 1.0 | 2.0 | 0.00 | 0.01 | 0.01 | 69 | 1009.7 |
| 20260503234623 | 77 | 168 | 0.0 | 2.0 | 0.00 | 0.01 | 0.01 | 69 | 1009.7 |
| 20260503234522 | 77 | 154 | 0.0 | 1.0 | 0.00 | 0.01 | 0.01 | 69 | 1009.7 |
| 20260503234423 | 77 | 154 | 0.0 | 1.0 | 0.00 | 0.01 | 0.01 | 69 | 1009.7 |
| 20260503234323 | 77 | 154 | 0.0 | 2.0 | 0.00 | 0.01 | 0.01 | 69 | 1009.6 |
| 20260503234232 | 77 | 172 | 0.0 | 2.0 | 0.00 | 0.01 | 0.01 | 69 | 1009.6 |
| 20260503234123 | 77 | 233 | 0.0 | 2.0 | 0.00 | 0.01 | 0.01 | 69 | 1009.6 |
| 20260503234024 | 77 | 233 | 0.0 | 2.0 | 0.00 | 0.01 | 0.01 | 69 | 1009.7 |
| 20260503233922 | 77 | 233 | 0.0 | 2.0 | 0.00 | 0.01 | 0.01 | 69 | 1009.6 |
| 20260503233822 | 77 | 233 | 0.0 | 2.0 | 0.00 | 0.01 | 0.01 | 69 | 1009.6 |
| 20260503233724 | 77 | 233 | 0.0 | 2.0 | 0.00 | 0.01 | 0.01 | 69 | 1009.6 |
| 20260503233623 | 78 | 233 | 0.0 | 2.0 | 0.00 | 0.01 | 0.01 | 70 | 1009.6 |
| 20260503233523 | 78 | 234 | 1.0 | 2.0 | 0.00 | 0.01 | 0.01 | 70 | 1009.5 |
| 20260503233423 | 78 | 234 | 0.0 | 2.0 | 0.00 | 0.01 | 0.01 | 70 | 1009.6 |
| 20260503233326 | 78 | 182 | 0.0 | 0.0 | 0.00 | 0.01 | 0.01 | 70 | 1009.6 |
| 20260503233222 | 78 | 180 | 0.0 | 0.0 | 0.00 | 0.01 | 0.01 | 70 | 1009.6 |
| 20260503233122 | 78 | 180 | 0.0 | 0.0 | 0.00 | 0.01 | 0.01 | 69 | 1009.6 |
| 20260503233022 | 78 | 180 | 0.0 | 0.0 | 0.00 | 0.01 | 0.01 | 69 | 1009.5 |
| 20260503232923 | 78 | 180 | 0.0 | 0.0 | 0.00 | 0.01 | 0.01 | 70 | 1009.5 |
| 20260503232823 | 78 | 180 | 0.0 | 0.0 | 0.00 | 0.01 | 0.01 | 70 | 1009.6 |
| 20260503232722 | 78 | 180 | 0.0 | 0.0 | 0.00 | 0.01 | 0.01 | 70 | 1009.6 |
| 20260503232622 | 78 | 180 | 0.0 | 0.0 | 0.00 | 0.01 | 0.01 | 70 | 1009.7 |
| 20260503232522 | 78 | 180 | 0.0 | 0.0 | 0.00 | 0.01 | 0.01 | 70 | 1009.6 |
| 20260503232422 | 78 | 180 | 0.0 | 0.0 | 0.00 | 0.01 | 0.01 | 70 | 1009.7 |
| 20260503232323 | 78 | 180 | 0.0 | 0.0 | 0.00 | 0.01 | 0.01 | 70 | 1009.7 |
| 20260503232222 | 78 | 178 | 0.0 | 0.0 | 0.00 | 0.01 | 0.01 | 70 | 1009.6 |
| 20260503232122 | 78 | 202 | 0.0 | 0.0 | 0.00 | 0.01 | 0.01 | 70 | 1009.7 |
| 20260503232022 | 78 | 200 | 0.0 | 0.0 | 0.00 | 0.01 | 0.01 | 70 | 1009.7 |
| 20260503231922 | 78 | 200 | 0.0 | 0.0 | 0.00 | 0.01 | 0.01 | 70 | 1009.6 |
| 20260503231823 | 78 | 200 | 0.0 | 0.0 | 0.00 | 0.01 | 0.01 | 70 | 1009.6 |
| 20260503231723 | 78 | 202 | 0.0 | 0.0 | 0.00 | 0.01 | 0.01 | 70 | 1009.6 |
| 20260503231621 | 78 | 202 | 0.0 | 0.0 | 0.00 | 0.01 | 0.01 | 70 | 1009.7 |
| 20260503231522 | 78 | 202 | 0.0 | 0.0 | 0.00 | 0.01 | 0.01 | 70 | 1009.7 |
| 20260503231423 | 78 | 202 | 0.0 | 0.0 | 0.00 | 0.01 | 0.01 | 70 | 1009.7 |
| 20260503231322 | 78 | 202 | 0.0 | 0.0 | 0.00 | 0.01 | 0.01 | 70 | 1009.7 |
| 20260503231221 | 78 | 202 | 0.0 | 0.0 | 0.00 | 0.01 | 0.01 | 70 | 1009.7 |
| 20260503231122 | 78 | 202 | 0.0 | 0.0 | 0.00 | 0.01 | 0.01 | 70 | 1009.8 |
| 20260503231022 | 78 | 202 | 0.0 | 0.0 | 0.00 | 0.01 | 0.01 | 69 | 1009.8 |
| 20260503230922 | 79 | 202 | 0.0 | 0.0 | 0.00 | 0.01 | 0.01 | 69 | 1009.8 |
| 20260503230823 | 79 | 195 | 0.0 | 0.0 | 0.00 | 0.01 | 0.01 | 70 | 1009.9 |
| 20260503230722 | 79 | 182 | 0.0 | 0.0 | 0.00 | 0.01 | 0.01 | 70 | 1009.8 |
| 20260503230621 | 79 | 182 | 0.0 | 0.0 | 0.00 | 0.01 | 0.01 | 69 | 1009.8 |
| 20260503230521 | 79 | 182 | 0.0 | 0.0 | 0.00 | 0.01 | 0.01 | 69 | 1009.8 |
| 20260503230424 | 79 | 182 | 0.0 | 0.0 | 0.00 | 0.01 | 0.01 | 69 | 1009.8 |
| 20260503230324 | 79 | 182 | 0.0 | 0.0 | 0.00 | 0.01 | 0.01 | 69 | 1009.8 |
| 20260503230224 | 79 | 182 | 0.0 | 0.0 | 0.00 | 0.01 | 0.01 | 69 | 1009.8 |
| 20260503230122 | 79 | 182 | 0.0 | 0.0 | 0.00 | 0.01 | 0.01 | 69 | 1009.8 |
| 20260503230022 | 79 | 128 | 0.0 | 0.0 | 0.00 | 0.01 | 0.01 | 69 | 1009.8 |
| 20260503225925 | 79 | 124 | 0.0 | 0.0 | 0.00 | 0.01 | 0.01 | 69 | 1009.8 |
| 20260503225822 | 79 | 124 | 0.0 | 0.0 | 0.00 | 0.01 | 0.01 | 68 | 1009.7 |
| 20260503225721 | 79 | 124 | 0.0 | 0.0 | 0.00 | 0.01 | 0.01 | 68 | 1009.7 |
| 20260503225622 | 79 | 124 | 0.0 | 0.0 | 0.00 | 0.01 | 0.01 | 68 | 1009.7 |
| 20260503225520 | 79 | 124 | 0.0 | 0.0 | 0.00 | 0.01 | 0.01 | 68 | 1009.8 |
| 20260503225416 | 79 | 124 | 0.0 | 0.0 | 0.00 | 0.01 | 0.01 | 68 | 1009.8 |
| 20260503225314 | 79 | 124 | 0.0 | 0.0 | 0.00 | 0.01 | 0.01 | 68 | 1009.8 |
| 20260503225214 | 79 | 123 | 0.0 | 0.0 | 0.00 | 0.01 | 0.01 | 68 | 1009.8 |
| 20260503225113 | 79 | 123 | 0.0 | 0.0 | 0.00 | 0.01 | 0.01 | 68 | 1009.8 |
| 20260503225009 | 79 | 120 | 0.0 | 0.0 | 0.00 | 0.01 | 0.01 | 68 | 1009.8 |
| 20260503224903 | 79 | 120 | 0.0 | 0.0 | 0.00 | 0.01 | 0.01 | 68 | 1009.8 |
| 20260503224803 | 79 | 116 | 0.0 | 0.0 | 0.00 | 0.01 | 0.01 | 68 | 1009.8 |
| 20260503224703 | 79 | 114 | 0.0 | 0.0 | 0.00 | 0.01 | 0.01 | 67 | 1009.8 |
| 20260503224602 | 79 | 114 | 0.0 | 0.0 | 0.00 | 0.01 | 0.01 | 67 | 1009.9 |
| 20260503224503 | 79 | 114 | 0.0 | 0.0 | 0.00 | 0.01 | 0.01 | 67 | 1010.0 |
| 20260503224404 | 79 | 113 | 0.0 | 0.0 | 0.00 | 0.01 | 0.01 | 67 | 1009.9 |
| 20260503224302 | 79 | 113 | 0.0 | 0.0 | 0.00 | 0.01 | 0.01 | 67 | 1010.0 |
| 20260503224203 | 80 | 113 | 0.0 | 0.0 | 0.00 | 0.01 | 0.01 | 67 | 1010.0 |
| 20260503224103 | 80 | 240 | 0.0 | 0.0 | 0.00 | 0.01 | 0.01 | 67 | 1010.0 |
| 20260503224002 | 80 | 238 | 0.0 | 0.0 | 0.00 | 0.01 | 0.01 | 67 | 1010.1 |
| 20260503223904 | 80 | 238 | 0.0 | 0.0 | 0.00 | 0.01 | 0.01 | 67 | 1010.1 |
| 20260503223803 | 80 | 238 | 0.0 | 0.0 | 0.00 | 0.01 | 0.01 | 67 | 1010.1 |
| 20260503223703 | 80 | 238 | 0.0 | 0.0 | 0.00 | 0.01 | 0.01 | 67 | 1010.1 |
| 20260503223605 | 80 | 237 | 0.0 | 1.0 | 0.00 | 0.01 | 0.01 | 67 | 1010.0 |
| 20260503223505 | 80 | 237 | 0.0 | 1.0 | 0.00 | 0.01 | 0.01 | 67 | 1010.0 |
| 20260503223403 | 80 | 172 | 0.0 | 1.0 | 0.00 | 0.01 | 0.01 | 68 | 1010.0 |
| 20260503223303 | 80 | 172 | 0.0 | 1.0 | 0.00 | 0.01 | 0.01 | 67 | 1010.0 |
| 20260503223201 | 80 | 172 | 0.0 | 1.0 | 0.00 | 0.01 | 0.01 | 67 | 1010.0 |
| 20260503223102 | 80 | 172 | 0.0 | 1.0 | 0.00 | 0.01 | 0.01 | 65 | 1010.1 |
| 20260503223002 | 80 | 172 | 0.0 | 1.0 | 0.00 | 0.01 | 0.01 | 65 | 1010.0 |
| 20260503222905 | 80 | 172 | 0.0 | 1.0 | 0.00 | 0.01 | 0.01 | 65 | 1010.0 |
| 20260503222804 | 80 | 171 | 0.0 | 1.0 | 0.00 | 0.01 | 0.01 | 65 | 1010.0 |
| 20260503222702 | 80 | 171 | 0.0 | 1.0 | 0.00 | 0.01 | 0.01 | 66 | 1010.0 |
| 20260503222604 | 80 | 168 | 0.0 | 2.0 | 0.00 | 0.01 | 0.01 | 67 | 1010.1 |
| 20260503222502 | 80 | 162 | 0.0 | 2.0 | 0.00 | 0.01 | 0.01 | 67 | 1010.0 |
| 20260503222403 | 80 | 173 | 0.0 | 2.0 | 0.00 | 0.01 | 0.01 | 66 | 1010.1 |
| 20260503222304 | 80 | 228 | 0.0 | 2.0 | 0.00 | 0.01 | 0.01 | 66 | 1010.2 |
| 20260503222204 | 80 | 230 | 0.0 | 2.0 | 0.00 | 0.01 | 0.01 | 66 | 1010.2 |
| 20260503222104 | 80 | 230 | 0.0 | 2.0 | 0.00 | 0.01 | 0.01 | 66 | 1010.2 |
| 20260503222004 | 80 | 233 | 0.0 | 2.0 | 0.00 | 0.01 | 0.01 | 66 | 1010.3 |
| 20260503221904 | 80 | 259 | 0.0 | 2.0 | 0.00 | 0.01 | 0.01 | 67 | 1010.3 |
| 20260503221803 | 80 | 259 | 0.0 | 2.0 | 0.00 | 0.01 | 0.01 | 67 | 1010.2 |
| 20260503221703 | 80 | 259 | 0.0 | 2.0 | 0.00 | 0.01 | 0.01 | 67 | 1010.2 |
| 20260503221604 | 80 | 278 | 0.0 | 2.0 | 0.00 | 0.01 | 0.01 | 67 | 1010.3 |
| 20260503221505 | 80 | 237 | 0.0 | 0.0 | 0.00 | 0.01 | 0.01 | 67 | 1010.2 |
| 20260503221403 | 80 | 240 | 0.0 | 0.0 | 0.00 | 0.01 | 0.01 | 67 | 1010.3 |
| 20260503221303 | 80 | 241 | 0.0 | 0.0 | 0.00 | 0.01 | 0.01 | 67 | 1010.3 |
| 20260503221203 | 80 | 241 | 0.0 | 0.0 | 0.00 | 0.01 | 0.01 | 66 | 1010.3 |
| 20260503221102 | 80 | 241 | 0.0 | 0.0 | 0.00 | 0.01 | 0.01 | 66 | 1010.3 |
| 20260503221004 | 80 | 241 | 0.0 | 0.0 | 0.00 | 0.01 | 0.01 | 66 | 1010.3 |
| 20260503220904 | 80 | 241 | 0.0 | 1.0 | 0.00 | 0.01 | 0.01 | 67 | 1010.4 |
| 20260503220835 | 80 | 241 | 0.0 | 1.0 | 0.00 | 0.01 | 0.01 | 67 | 1010.4 |
| 20260503220803 | 80 | 241 | 0.0 | 1.0 | 0.00 | 0.01 | 0.01 | 67 | 1010.4 |
| 20260503220705 | 80 | 241 | 0.0 | 1.0 | 0.00 | 0.01 | 0.01 | 67 | 1010.4 |
| 20260503220604 | 80 | 241 | 0.0 | 1.0 | 0.00 | 0.01 | 0.01 | 67 | 1010.4 |
| 20260503220503 | 80 | 241 | 0.0 | 3.0 | 0.00 | 0.01 | 0.01 | 66 | 1010.5 |
| 20260503220403 | 80 | 241 | 0.0 | 3.0 | 0.00 | 0.01 | 0.01 | 66 | 1010.5 |
| 20260503220302 | 80 | 243 | 0.0 | 3.0 | 0.00 | 0.01 | 0.01 | 66 | 1010.5 |
| 20260503220202 | 80 | 243 | 0.0 | 3.0 | 0.00 | 0.01 | 0.01 | 66 | 1010.6 |
| 20260503220104 | 80 | 243 | 0.0 | 3.0 | 0.00 | 0.01 | 0.01 | 66 | 1010.5 |
| 20260503220002 | 80 | 243 | 0.0 | 3.0 | 0.00 | 0.01 | 0.01 | 66 | 1010.5 |
| 20260503215902 | 80 | 240 | 0.0 | 3.0 | 0.00 | 0.01 | 0.01 | 66 | 1010.5 |
| 20260503215804 | 80 | 237 | 1.0 | 3.0 | 0.00 | 0.01 | 0.01 | 66 | 1010.6 |
| 20260503215703 | 80 | 234 | 1.0 | 3.0 | 0.00 | 0.01 | 0.01 | 66 | 1010.6 |
| 20260503215603 | 80 | 234 | 1.0 | 3.0 | 0.00 | 0.01 | 0.01 | 66 | 1010.5 |
| 20260503215506 | 80 | 234 | 1.0 | 2.0 | 0.00 | 0.01 | 0.01 | 66 | 1010.5 |
| 20260503215403 | 80 | 168 | 1.0 | 2.0 | 0.00 | 0.01 | 0.01 | 66 | 1010.5 |
| 20260503215304 | 80 | 268 | 1.0 | 2.0 | 0.00 | 0.01 | 0.01 | 66 | 1010.4 |
| 20260503215203 | 80 | 268 | 1.0 | 2.0 | 0.00 | 0.01 | 0.01 | 66 | 1010.5 |
| 20260503215103 | 80 | 264 | 0.0 | 2.0 | 0.00 | 0.01 | 0.01 | 66 | 1010.5 |
| 20260503215003 | 80 | 269 | 0.0 | 2.0 | 0.00 | 0.01 | 0.01 | 65 | 1010.5 |
| 20260503214902 | 80 | 252 | 0.0 | 2.0 | 0.00 | 0.01 | 0.01 | 65 | 1010.5 |
| 20260503214802 | 80 | 248 | 0.0 | 2.0 | 0.00 | 0.01 | 0.01 | 65 | 1010.4 |
| 20260503214702 | 80 | 248 | 0.0 | 2.0 | 0.00 | 0.01 | 0.01 | 65 | 1010.5 |
| 20260503214602 | 80 | 248 | 0.0 | 2.0 | 0.00 | 0.01 | 0.01 | 65 | 1010.4 |
| 20260503214503 | 80 | 248 | 0.0 | 2.0 | 0.00 | 0.01 | 0.01 | 63 | 1010.4 |
| 20260503214403 | 80 | 250 | 0.0 | 2.0 | 0.00 | 0.01 | 0.01 | 63 | 1010.5 |
| 20260503214303 | 80 | 252 | 0.0 | 2.0 | 0.00 | 0.01 | 0.01 | 63 | 1010.4 |
| 20260503214205 | 80 | 252 | 0.0 | 2.0 | 0.00 | 0.01 | 0.01 | 63 | 1010.4 |
| 20260503214104 | 80 | 252 | 0.0 | 2.0 | 0.00 | 0.01 | 0.01 | 64 | 1010.4 |
| 20260503214003 | 80 | 252 | 0.0 | 2.0 | 0.00 | 0.01 | 0.01 | 66 | 1010.4 |
| 20260503213903 | 80 | 252 | 0.0 | 2.0 | 0.00 | 0.01 | 0.01 | 66 | 1010.4 |
| 20260503213803 | 80 | 252 | 0.0 | 2.0 | 0.00 | 0.01 | 0.01 | 66 | 1010.4 |
| 20260503213702 | 80 | 252 | 0.0 | 2.0 | 0.00 | 0.01 | 0.01 | 66 | 1010.4 |
| 20260503213604 | 80 | 252 | 0.0 | 2.0 | 0.00 | 0.01 | 0.01 | 67 | 1010.4 |
| 20260503213502 | 80 | 252 | 0.0 | 2.0 | 0.00 | 0.01 | 0.01 | 67 | 1010.5 |
| 20260503213403 | 80 | 252 | 1.0 | 2.0 | 0.00 | 0.01 | 0.01 | 67 | 1010.5 |
| 20260503213301 | 80 | 252 | 1.0 | 2.0 | 0.00 | 0.01 | 0.01 | 67 | 1010.6 |
| 20260503213202 | 81 | 252 | 0.0 | 2.0 | 0.00 | 0.01 | 0.01 | 67 | 1010.6 |
| 20260503213104 | 80 | 252 | 0.0 | 2.0 | 0.00 | 0.01 | 0.01 | 67 | 1010.7 |
| 20260503213006 | 81 | 252 | 1.0 | 2.0 | 0.00 | 0.01 | 0.01 | 67 | 1010.7 |
| 20260503212903 | 81 | 252 | 1.0 | 2.0 | 0.00 | 0.01 | 0.01 | 68 | 1010.8 |
| 20260503212802 | 81 | 286 | 0.0 | 2.0 | 0.00 | 0.01 | 0.01 | 67 | 1010.8 |
| 20260503212703 | 81 | 286 | 0.0 | 2.0 | 0.00 | 0.01 | 0.01 | 67 | 1010.8 |
| 20260503212556 | 81 | 209 | 0.0 | 2.0 | 0.00 | 0.01 | 0.01 | 66 | 1010.8 |
| 20260503212454 | 81 | 248 | 0.0 | 2.0 | 0.00 | 0.01 | 0.01 | 66 | 1010.9 |
| 20260503212350 | 81 | 248 | 0.0 | 2.0 | 0.00 | 0.01 | 0.01 | 66 | 1011.0 |
| 20260503212247 | 81 | 157 | 0.0 | 1.0 | 0.00 | 0.01 | 0.01 | 66 | 1011.0 |
| 20260503212147 | 81 | 157 | 0.0 | 1.0 | 0.00 | 0.01 | 0.01 | 65 | 1010.9 |
| 20260503212044 | 81 | 157 | 0.0 | 1.0 | 0.00 | 0.01 | 0.01 | 65 | 1011.0 |
| 20260503211943 | 81 | 157 | 0.0 | 1.0 | 0.00 | 0.01 | 0.01 | 65 | 1011.0 |
| 20260503211841 | 81 | 157 | 0.0 | 3.0 | 0.00 | 0.01 | 0.01 | 65 | 1011.0 |
| 20260503211736 | 81 | 203 | 0.0 | 3.0 | 0.00 | 0.01 | 0.01 | 65 | 1011.0 |
| 20260503211636 | 81 | 203 | 0.0 | 3.0 | 0.00 | 0.01 | 0.01 | 66 | 1011.1 |
| 20260503211532 | 81 | 186 | 0.0 | 3.0 | 0.00 | 0.01 | 0.01 | 66 | 1011.2 |
| 20260503211433 | 81 | 183 | 0.0 | 3.0 | 0.00 | 0.01 | 0.01 | 65 | 1011.2 |
| 20260503211331 | 81 | 171 | 0.0 | 3.0 | 0.00 | 0.01 | 0.01 | 65 | 1011.2 |
| 20260503211233 | 81 | 171 | 0.0 | 3.0 | 0.00 | 0.01 | 0.01 | 63 | 1011.1 |
| 20260503211132 | 81 | 171 | 0.0 | 3.0 | 0.00 | 0.01 | 0.01 | 63 | 1011.2 |
| 20260503211033 | 81 | 171 | 1.0 | 3.0 | 0.00 | 0.01 | 0.01 | 63 | 1011.2 |
| 20260503210931 | 81 | 171 | 1.0 | 3.0 | 0.00 | 0.01 | 0.01 | 63 | 1011.1 |
| 20260503210832 | 81 | 166 | 1.0 | 2.0 | 0.00 | 0.01 | 0.01 | 63 | 1011.1 |
| 20260503210733 | 81 | 144 | 1.0 | 2.0 | 0.00 | 0.01 | 0.01 | 63 | 1011.2 |
| 20260503210634 | 81 | 157 | 0.0 | 2.0 | 0.00 | 0.01 | 0.01 | 63 | 1011.1 |
| 20260503210532 | 81 | 203 | 0.0 | 2.0 | 0.00 | 0.01 | 0.01 | 63 | 1011.2 |
| 20260503210432 | 81 | 203 | 1.0 | 2.0 | 0.00 | 0.01 | 0.01 | 64 | 1011.2 |
| 20260503210332 | 81 | 200 | 1.0 | 2.0 | 0.00 | 0.01 | 0.01 | 65 | 1011.3 |
| 20260503210230 | 81 | 192 | 0.0 | 2.0 | 0.00 | 0.01 | 0.01 | 65 | 1011.3 |
| 20260503210123 | 81 | 292 | 0.0 | 0.0 | 0.00 | 0.01 | 0.01 | 65 | 1011.2 |
| 20260503210019 | 81 | 282 | 0.0 | 0.0 | 0.00 | 0.01 | 0.01 | 65 | 1011.2 |
| 20260503205921 | 81 | 282 | 0.0 | 0.0 | 0.00 | 0.01 | 0.01 | 65 | 1011.3 |
| 20260503205820 | 81 | 282 | 0.0 | 0.0 | 0.00 | 0.01 | 0.01 | 65 | 1011.2 |
| 20260503205718 | 81 | 282 | 0.0 | 0.0 | 0.00 | 0.01 | 0.01 | 67 | 1011.2 |
| 20260503205619 | 81 | 282 | 0.0 | 0.0 | 0.00 | 0.01 | 0.01 | 67 | 1011.3 |
| 20260503205519 | 81 | 99 | 0.0 | 0.0 | 0.00 | 0.01 | 0.01 | 67 | 1011.3 |
| 20260503205420 | 81 | 327 | 0.0 | 0.0 | 0.00 | 0.01 | 0.01 | 67 | 1011.3 |
| 20260503205319 | 81 | 310 | 0.0 | 0.0 | 0.00 | 0.01 | 0.01 | 66 | 1011.3 |
| 20260503205220 | 81 | 309 | 0.0 | 0.0 | 0.00 | 0.01 | 0.01 | 66 | 1011.3 |
| 20260503205118 | 81 | 309 | 0.0 | 0.0 | 0.00 | 0.01 | 0.01 | 66 | 1011.3 |
| 20260503205020 | 81 | 309 | 0.0 | 0.0 | 0.00 | 0.01 | 0.01 | 66 | 1011.4 |
| 20260503204919 | 81 | 196 | 0.0 | 0.0 | 0.00 | 0.01 | 0.01 | 66 | 1011.3 |
| 20260503204813 | 81 | 195 | 0.0 | 0.0 | 0.00 | 0.01 | 0.01 | 66 | 1011.4 |
| 20260503204714 | 81 | 209 | 0.0 | 0.0 | 0.00 | 0.01 | 0.01 | 66 | 1011.4 |
| 20260503204611 | 81 | 209 | 0.0 | 0.0 | 0.00 | 0.01 | 0.01 | 67 | 1011.4 |
| 20260503204504 | 81 | 207 | 0.0 | 0.0 | 0.00 | 0.01 | 0.01 | 67 | 1011.4 |
| 20260503204401 | 81 | 209 | 0.0 | 0.0 | 0.00 | 0.01 | 0.01 | 65 | 1011.4 |
| 20260503204302 | 81 | 210 | 0.0 | 0.0 | 0.00 | 0.01 | 0.01 | 65 | 1011.5 |
| 20260503204204 | 81 | 209 | 0.0 | 0.0 | 0.00 | 0.01 | 0.01 | 65 | 1011.5 |
| 20260503204103 | 81 | 209 | 0.0 | 0.0 | 0.00 | 0.01 | 0.01 | 65 | 1011.5 |
| 20260503204004 | 81 | 209 | 0.0 | 0.0 | 0.00 | 0.01 | 0.01 | 65 | 1011.6 |
| 20260503203905 | 81 | 209 | 0.0 | 0.0 | 0.00 | 0.01 | 0.01 | 65 | 1011.6 |
| 20260503203802 | 81 | 207 | 0.0 | 0.0 | 0.00 | 0.01 | 0.01 | 65 | 1011.5 |
| 20260503203702 | 81 | 207 | 0.0 | 0.0 | 0.00 | 0.01 | 0.01 | 66 | 1011.6 |
| 20260503203603 | 81 | 151 | 0.0 | 0.0 | 0.00 | 0.01 | 0.01 | 65 | 1011.6 |
| 20260503203455 | 81 | 149 | 0.0 | 0.0 | 0.00 | 0.01 | 0.01 | 65 | 1011.7 |
| 20260503203350 | 81 | 149 | 0.0 | 0.0 | 0.00 | 0.01 | 0.01 | 65 | 1011.7 |
| 20260503203246 | 81 | 151 | 0.0 | 0.0 | 0.00 | 0.01 | 0.01 | 64 | 1011.8 |
| 20260503203130 | 81 | 148 | 0.0 | 0.0 | 0.00 | 0.01 | 0.01 | 64 | 1011.8 |
| 20260503203031 | 81 | 162 | 0.0 | 0.0 | 0.00 | 0.01 | 0.01 | 66 | 1011.8 |
| 20260503202933 | 81 | 168 | 0.0 | 0.0 | 0.00 | 0.01 | 0.01 | 66 | 1011.9 |
| 20260503202832 | 81 | 165 | 0.0 | 0.0 | 0.00 | 0.01 | 0.01 | 66 | 1011.9 |
| 20260503202732 | 81 | 241 | 0.0 | 0.0 | 0.00 | 0.01 | 0.01 | 66 | 1011.8 |
| 20260503202632 | 81 | 214 | 0.0 | 0.0 | 0.00 | 0.01 | 0.01 | 66 | 1011.8 |
| 20260503202528 | 81 | 214 | 0.0 | 0.0 | 0.00 | 0.01 | 0.01 | 66 | 1011.8 |
| 20260503202423 | 81 | 214 | 0.0 | 0.0 | 0.00 | 0.01 | 0.01 | 67 | 1011.8 |
| 20260503202319 | 82 | 354 | 0.0 | 0.0 | 0.00 | 0.01 | 0.01 | 68 | 1011.9 |
| 20260503202218 | 82 | 114 | 0.0 | 0.0 | 0.00 | 0.01 | 0.01 | 67 | 1011.8 |
| 20260503202119 | 82 | 114 | 0.0 | 0.0 | 0.00 | 0.01 | 0.01 | 67 | 1011.9 |
| 20260503202019 | 82 | 114 | 0.0 | 0.0 | 0.00 | 0.01 | 0.01 | 66 | 1011.8 |
| 20260503201918 | 82 | 114 | 0.0 | 0.0 | 0.00 | 0.01 | 0.01 | 66 | 1011.9 |
| 20260503201819 | 82 | 114 | 0.0 | 0.0 | 0.00 | 0.01 | 0.01 | 66 | 1011.9 |
| 20260503201719 | 82 | 114 | 0.0 | 0.0 | 0.00 | 0.01 | 0.01 | 66 | 1011.9 |
| 20260503201617 | 82 | 76 | 0.0 | 0.0 | 0.00 | 0.01 | 0.01 | 66 | 1011.9 |
| 20260503201518 | 82 | 76 | 0.0 | 0.0 | 0.00 | 0.01 | 0.01 | 66 | 1012.0 |
| 20260503201419 | 82 | 76 | 0.0 | 0.0 | 0.00 | 0.01 | 0.01 | 66 | 1011.9 |
| 20260503201317 | 82 | 76 | 0.0 | 0.0 | 0.00 | 0.01 | 0.01 | 66 | 1011.9 |
| 20260503201218 | 82 | 76 | 0.0 | 0.0 | 0.00 | 0.01 | 0.01 | 66 | 1012.0 |
| 20260503201117 | 82 | 76 | 0.0 | 0.0 | 0.00 | 0.01 | 0.01 | 66 | 1012.1 |
| 20260503201019 | 82 | 76 | 0.0 | 0.0 | 0.00 | 0.01 | 0.01 | 66 | 1012.0 |
| 20260503200918 | 82 | 78 | 0.0 | 0.0 | 0.00 | 0.01 | 0.01 | 66 | 1012.1 |
| 20260503200821 | 82 | 76 | 0.0 | 0.0 | 0.00 | 0.01 | 0.01 | 66 | 1012.1 |
| 20260503200717 | 82 | 351 | 0.0 | 0.0 | 0.00 | 0.01 | 0.01 | 66 | 1012.1 |
| 20260503200620 | 81 | 336 | 0.0 | 0.0 | 0.00 | 0.01 | 0.01 | 66 | 1012.1 |
| 20260503200520 | 81 | 334 | 0.0 | 0.0 | 0.00 | 0.01 | 0.01 | 66 | 1012.0 |
| 20260503200418 | 81 | 336 | 0.0 | 0.0 | 0.00 | 0.01 | 0.01 | 66 | 1012.1 |
| 20260503200319 | 81 | 343 | 0.0 | 0.0 | 0.00 | 0.01 | 0.01 | 66 | 1012.1 |
| 20260503200215 | 81 | 343 | 0.0 | 0.0 | 0.00 | 0.01 | 0.01 | 66 | 1012.2 |
| 20260503200110 | 81 | 343 | 0.0 | 0.0 | 0.00 | 0.01 | 0.01 | 65 | 1012.2 |
| 20260503200005 | 81 | 268 | 0.0 | 0.0 | 0.00 | 0.01 | 0.01 | 65 | 1012.3 |
| 20260503195904 | 81 | 248 | 0.0 | 0.0 | 0.00 | 0.01 | 0.01 | 66 | 1012.4 |
| 20260503195803 | 81 | 247 | 0.0 | 0.0 | 0.00 | 0.01 | 0.01 | 66 | 1012.4 |
| 20260503195704 | 81 | 245 | 0.0 | 0.0 | 0.00 | 0.01 | 0.01 | 66 | 1012.3 |
| 20260503195602 | 81 | 247 | 0.0 | 0.0 | 0.00 | 0.01 | 0.01 | 66 | 1012.4 |
| 20260503195502 | 81 | 248 | 0.0 | 0.0 | 0.00 | 0.01 | 0.01 | 68 | 1012.4 |
| 20260503195401 | 81 | 247 | 0.0 | 0.0 | 0.00 | 0.01 | 0.01 | 68 | 1012.3 |
| 20260503195256 | 81 | 250 | 0.0 | 0.0 | 0.00 | 0.01 | 0.01 | 69 | 1012.4 |
| 20260503195152 | 81 | 248 | 0.0 | 0.0 | 0.00 | 0.01 | 0.01 | 69 | 1012.4 |
| 20260503195056 | 81 | 250 | 0.0 | 0.0 | 0.00 | 0.01 | 0.01 | 66 | 1012.4 |
| 20260503194946 | 80 | 251 | 0.0 | 0.0 | 0.00 | 0.01 | 0.01 | 67 | 1012.4 |
| 20260503194844 | 80 | 251 | 0.0 | 0.0 | 0.00 | 0.01 | 0.01 | 67 | 1012.5 |
| 20260503194742 | 80 | 288 | 0.0 | 0.0 | 0.00 | 0.01 | 0.01 | 67 | 1012.5 |
| 20260503194638 | 80 | 261 | 0.0 | 0.0 | 0.00 | 0.01 | 0.01 | 68 | 1012.5 |
| 20260503194532 | 80 | 262 | 0.0 | 0.0 | 0.00 | 0.01 | 0.01 | 68 | 1012.5 |
| 20260503194431 | 80 | 158 | 0.0 | 0.0 | 0.00 | 0.01 | 0.01 | 67 | 1012.5 |
| 20260503194332 | 80 | 151 | 0.0 | 0.0 | 0.00 | 0.01 | 0.01 | 67 | 1012.5 |
| 20260503194232 | 80 | 137 | 0.0 | 0.0 | 0.00 | 0.01 | 0.01 | 66 | 1012.5 |
| 20260503194131 | 80 | 338 | 0.0 | 0.0 | 0.00 | 0.01 | 0.01 | 66 | 1012.5 |
| 20260503194032 | 80 | 305 | 0.0 | 0.0 | 0.00 | 0.01 | 0.01 | 68 | 1012.5 |
| 20260503193931 | 80 | 306 | 0.0 | 0.0 | 0.00 | 0.01 | 0.01 | 67 | 1012.6 |
| 20260503193819 | 80 | 306 | 0.0 | 0.0 | 0.00 | 0.01 | 0.01 | 67 | 1012.6 |
| 20260503193718 | 80 | 306 | 0.0 | 0.0 | 0.00 | 0.01 | 0.01 | 68 | 1012.6 |
| 20260503193618 | 80 | 223 | 0.0 | 0.0 | 0.00 | 0.01 | 0.01 | 68 | 1012.6 |
| 20260503193518 | 80 | 223 | 0.0 | 0.0 | 0.00 | 0.01 | 0.01 | 68 | 1012.6 |
| 20260503193416 | 80 | 223 | 0.0 | 0.0 | 0.00 | 0.01 | 0.01 | 68 | 1012.7 |
| 20260503193317 | 80 | 223 | 0.0 | 0.0 | 0.00 | 0.01 | 0.01 | 68 | 1012.6 |
| 20260503193217 | 81 | 223 | 0.0 | 0.0 | 0.00 | 0.01 | 0.01 | 67 | 1012.7 |
| 20260503193116 | 81 | 223 | 0.0 | 0.0 | 0.00 | 0.01 | 0.01 | 67 | 1012.7 |
| 20260503193017 | 81 | 223 | 0.0 | 0.0 | 0.00 | 0.01 | 0.01 | 67 | 1012.7 |
| 20260503192917 | 81 | 223 | 0.0 | 0.0 | 0.00 | 0.01 | 0.01 | 67 | 1012.7 |
| 20260503192816 | 81 | 223 | 0.0 | 0.0 | 0.00 | 0.01 | 0.01 | 66 | 1012.8 |
| 20260503192716 | 81 | 223 | 0.0 | 0.0 | 0.00 | 0.01 | 0.01 | 65 | 1012.7 |
| 20260503192616 | 81 | 223 | 0.0 | 0.0 | 0.00 | 0.01 | 0.01 | 65 | 1012.7 |
| 20260503192522 | 81 | 226 | 0.0 | 0.0 | 0.00 | 0.01 | 0.01 | 65 | 1012.8 |
| 20260503192416 | 81 | 226 | 0.0 | 0.0 | 0.00 | 0.01 | 0.01 | 65 | 1012.8 |
| 20260503192315 | 81 | 221 | 0.0 | 0.0 | 0.00 | 0.01 | 0.01 | 65 | 1012.8 |
| 20260503192213 | 81 | 233 | 0.0 | 0.0 | 0.00 | 0.01 | 0.01 | 64 | 1012.8 |
| 20260503192108 | 81 | 147 | 0.0 | 0.0 | 0.00 | 0.01 | 0.01 | 64 | 1012.8 |
| 20260503192005 | 81 | 148 | 0.0 | 0.0 | 0.00 | 0.01 | 0.01 | 64 | 1012.8 |
| 20260503191904 | 81 | 148 | 0.0 | 0.0 | 0.00 | 0.01 | 0.01 | 64 | 1012.8 |
| 20260503191802 | 81 | 148 | 0.0 | 0.0 | 0.00 | 0.01 | 0.01 | 65 | 1012.9 |
| 20260503191702 | 81 | 148 | 0.0 | 0.0 | 0.00 | 0.01 | 0.01 | 65 | 1012.9 |
| 20260503191602 | 81 | 148 | 0.0 | 0.0 | 0.00 | 0.01 | 0.01 | 67 | 1012.9 |
| 20260503191502 | 81 | 148 | 0.0 | 0.0 | 0.00 | 0.01 | 0.01 | 67 | 1012.9 |
| 20260503191404 | 81 | 148 | 0.0 | 0.0 | 0.00 | 0.01 | 0.01 | 65 | 1012.9 |
| 20260503191302 | 81 | 148 | 0.0 | 0.0 | 0.00 | 0.01 | 0.01 | 65 | 1013.0 |
| 20260503191203 | 81 | 148 | 0.0 | 0.0 | 0.00 | 0.01 | 0.01 | 65 | 1012.9 |
| 20260503191103 | 81 | 147 | 0.0 | 0.0 | 0.00 | 0.01 | 0.01 | 65 | 1013.0 |
| 20260503191002 | 81 | 197 | 0.0 | 0.0 | 0.00 | 0.01 | 0.01 | 65 | 1013.1 |
| 20260503190903 | 81 | 212 | 0.0 | 0.0 | 0.00 | 0.01 | 0.01 | 65 | 1013.1 |
| 20260503190805 | 82 | 180 | 0.0 | 0.0 | 0.00 | 0.01 | 0.01 | 65 | 1013.1 |
| 20260503190702 | 81 | 179 | 0.0 | 0.0 | 0.00 | 0.01 | 0.01 | 66 | 1013.1 |
| 20260503190602 | 81 | 94 | 0.0 | 0.0 | 0.00 | 0.01 | 0.01 | 66 | 1013.1 |
| 20260503190505 | 81 | 94 | 0.0 | 0.0 | 0.00 | 0.01 | 0.01 | 66 | 1013.1 |
| 20260503190402 | 81 | 94 | 0.0 | 0.0 | 0.00 | 0.01 | 0.01 | 66 | 1013.1 |
| 20260503190302 | 81 | 93 | 0.0 | 1.0 | 0.00 | 0.01 | 0.01 | 67 | 1013.1 |
| 20260503190204 | 81 | 92 | 0.0 | 1.0 | 0.00 | 0.01 | 0.01 | 67 | 1013.2 |
| 20260503190104 | 81 | 83 | 0.0 | 1.0 | 0.00 | 0.01 | 0.01 | 67 | 1013.2 |
| 20260503190004 | 81 | 109 | 0.0 | 1.0 | 0.00 | 0.01 | 0.01 | 65 | 1013.2 |
| 20260503185902 | 81 | 109 | 0.0 | 1.0 | 0.00 | 0.01 | 0.01 | 65 | 1013.1 |
| 20260503185803 | 81 | 283 | 0.0 | 1.0 | 0.00 | 0.01 | 0.01 | 65 | 1013.2 |
| 20260503185703 | 81 | 96 | 0.0 | 1.0 | 0.00 | 0.01 | 0.01 | 65 | 1013.2 |
| 20260503185604 | 81 | 94 | 0.0 | 1.0 | 0.00 | 0.01 | 0.01 | 68 | 1013.2 |
| 20260503185502 | 81 | 178 | 0.0 | 1.0 | 0.00 | 0.01 | 0.01 | 68 | 1013.2 |
| 20260503185402 | 81 | 180 | 0.0 | 1.0 | 0.00 | 0.01 | 0.01 | 68 | 1013.2 |
| 20260503185304 | 81 | 231 | 0.0 | 0.0 | 0.00 | 0.01 | 0.01 | 68 | 1013.2 |
| 20260503185202 | 81 | 231 | 0.0 | 0.0 | 0.00 | 0.01 | 0.01 | 66 | 1013.3 |
| 20260503185103 | 81 | 230 | 0.0 | 0.0 | 0.00 | 0.01 | 0.01 | 66 | 1013.3 |
| 20260503185004 | 81 | 230 | 0.0 | 0.0 | 0.00 | 0.01 | 0.01 | 66 | 1013.3 |
| 20260503184904 | 81 | 283 | 0.0 | 0.0 | 0.00 | 0.01 | 0.01 | 68 | 1013.2 |
| 20260503184803 | 81 | 336 | 0.0 | 0.0 | 0.00 | 0.01 | 0.01 | 67 | 1013.3 |
| 20260503184702 | 80 | 338 | 0.0 | 0.0 | 0.00 | 0.01 | 0.01 | 67 | 1013.2 |
| 20260503184604 | 80 | 125 | 0.0 | 0.0 | 0.00 | 0.01 | 0.01 | 67 | 1013.3 |
| 20260503184503 | 80 | 128 | 0.0 | 0.0 | 0.00 | 0.01 | 0.01 | 67 | 1013.2 |
| 20260503184404 | 80 | 127 | 0.0 | 1.0 | 0.00 | 0.01 | 0.01 | 66 | 1013.2 |
| 20260503184304 | 80 | 127 | 0.0 | 1.0 | 0.00 | 0.01 | 0.01 | 66 | 1013.4 |
| 20260503184203 | 80 | 127 | 0.0 | 1.0 | 0.00 | 0.01 | 0.01 | 66 | 1013.4 |
| 20260503184103 | 80 | 113 | 0.0 | 1.0 | 0.00 | 0.01 | 0.01 | 66 | 1013.3 |
| 20260503184004 | 80 | 113 | 0.0 | 1.0 | 0.00 | 0.01 | 0.01 | 69 | 1013.3 |
| 20260503183903 | 80 | 123 | 0.0 | 1.0 | 0.00 | 0.01 | 0.01 | 69 | 1013.3 |
| 20260503183802 | 80 | 123 | 0.0 | 1.0 | 0.00 | 0.01 | 0.01 | 69 | 1013.5 |
| 20260503183702 | 80 | 182 | 0.0 | 1.0 | 0.00 | 0.01 | 0.01 | 67 | 1013.4 |
| 20260503183604 | 80 | 180 | 0.0 | 1.0 | 0.00 | 0.01 | 0.01 | 66 | 1013.4 |
| 20260503183505 | 80 | 179 | 0.0 | 1.0 | 0.00 | 0.01 | 0.01 | 66 | 1013.3 |
| 20260503183407 | 80 | 348 | 0.0 | 0.0 | 0.00 | 0.01 | 0.01 | 66 | 1013.4 |
| 20260503183304 | 80 | 305 | 0.0 | 0.0 | 0.00 | 0.01 | 0.01 | 67 | 1013.4 |
| 20260503183203 | 80 | 235 | 0.0 | 0.0 | 0.00 | 0.01 | 0.01 | 68 | 1013.4 |
| 20260503183104 | 80 | 234 | 0.0 | 0.0 | 0.00 | 0.01 | 0.01 | 65 | 1013.5 |
| 20260503183003 | 80 | 228 | 0.0 | 0.0 | 0.00 | 0.01 | 0.01 | 65 | 1013.4 |
| 20260503182903 | 80 | 111 | 0.0 | 0.0 | 0.00 | 0.01 | 0.01 | 65 | 1013.5 |
| 20260503182803 | 80 | 230 | 0.0 | 0.0 | 0.00 | 0.01 | 0.01 | 65 | 1013.5 |
| 20260503182702 | 80 | 233 | 0.0 | 2.0 | 0.00 | 0.01 | 0.01 | 65 | 1013.5 |
| 20260503182602 | 80 | 250 | 0.0 | 2.0 | 0.00 | 0.01 | 0.01 | 65 | 1013.6 |
| 20260503182503 | 80 | 66 | 0.0 | 2.0 | 0.00 | 0.01 | 0.01 | 65 | 1013.6 |
| 20260503182402 | 80 | 68 | 0.0 | 2.0 | 0.00 | 0.01 | 0.01 | 65 | 1013.6 |
| 20260503182305 | 80 | 68 | 0.0 | 2.0 | 0.00 | 0.01 | 0.01 | 65 | 1013.6 |
| 20260503182204 | 81 | 357 | 0.0 | 2.0 | 0.00 | 0.01 | 0.01 | 65 | 1013.6 |
| 20260503182104 | 81 | 235 | 0.0 | 2.0 | 0.00 | 0.01 | 0.01 | 65 | 1013.7 |
| 20260503182005 | 80 | 244 | 0.0 | 2.0 | 0.00 | 0.01 | 0.01 | 65 | 1013.7 |
| 20260503181902 | 80 | 245 | 0.0 | 2.0 | 0.00 | 0.01 | 0.01 | 65 | 1013.6 |
| 20260503181805 | 80 | 245 | 0.0 | 2.0 | 0.00 | 0.01 | 0.01 | 65 | 1013.7 |
| 20260503181704 | 80 | 175 | 0.0 | 0.0 | 0.00 | 0.01 | 0.01 | 65 | 1013.7 |
| 20260503181603 | 80 | 172 | 0.0 | 0.0 | 0.00 | 0.01 | 0.01 | 66 | 1013.8 |
| 20260503181503 | 80 | 162 | 0.0 | 0.0 | 0.00 | 0.01 | 0.01 | 66 | 1013.7 |
| 20260503181354 | 80 | 135 | 0.0 | 0.0 | 0.00 | 0.01 | 0.01 | 66 | 1013.7 |
| 20260503181253 | 80 | 89 | 0.0 | 0.0 | 0.00 | 0.01 | 0.01 | 66 | 1013.7 |
| 20260503181148 | 80 | 87 | 0.0 | 0.0 | 0.00 | 0.01 | 0.01 | 66 | 1013.8 |
| 20260503181047 | 80 | 86 | 0.0 | 0.0 | 0.00 | 0.01 | 0.01 | 66 | 1013.8 |
| 20260503180941 | 80 | 113 | 0.0 | 0.0 | 0.00 | 0.01 | 0.01 | 66 | 1013.9 |
| 20260503180835 | 80 | 71 | 0.0 | 0.0 | 0.00 | 0.01 | 0.01 | 68 | 1013.9 |
| 20260503180732 | 80 | 65 | 0.0 | 0.0 | 0.00 | 0.01 | 0.01 | 68 | 1013.8 |
| 20260503180631 | 80 | 65 | 0.0 | 0.0 | 0.00 | 0.01 | 0.01 | 65 | 1013.8 |
| 20260503180533 | 80 | 65 | 0.0 | 0.0 | 0.00 | 0.01 | 0.01 | 67 | 1013.9 |
| 20260503180433 | 80 | 96 | 0.0 | 0.0 | 0.00 | 0.01 | 0.01 | 68 | 1013.9 |
| 20260503180328 | 80 | 97 | 0.0 | 0.0 | 0.00 | 0.01 | 0.01 | 68 | 1013.9 |
| 20260503180224 | 80 | 97 | 0.0 | 0.0 | 0.00 | 0.01 | 0.01 | 68 | 1014.0 |
| 20260503180116 | 80 | 244 | 0.0 | 0.0 | 0.00 | 0.01 | 0.01 | 68 | 1014.0 |
| 20260503180017 | 80 | 244 | 0.0 | 0.0 | 0.00 | 0.01 | 0.01 | 67 | 1014.0 |
| 20260503175914 | 80 | 244 | 0.0 | 0.0 | 0.00 | 0.01 | 0.01 | 67 | 1014.2 |
| 20260503175816 | 80 | 180 | 0.0 | 0.0 | 0.00 | 0.01 | 0.01 | 67 | 1014.1 |
| 20260503175715 | 80 | 180 | 0.0 | 0.0 | 0.00 | 0.01 | 0.01 | 67 | 1014.1 |
| 20260503175615 | 80 | 180 | 0.0 | 0.0 | 0.00 | 0.01 | 0.01 | 67 | 1014.1 |
| 20260503175517 | 80 | 180 | 0.0 | 0.0 | 0.00 | 0.01 | 0.01 | 66 | 1014.1 |
| 20260503175415 | 80 | 180 | 0.0 | 0.0 | 0.00 | 0.01 | 0.01 | 67 | 1014.1 |
| 20260503175316 | 81 | 149 | 0.0 | 0.0 | 0.00 | 0.01 | 0.01 | 66 | 1014.2 |
| 20260503175215 | 81 | 138 | 0.0 | 0.0 | 0.00 | 0.01 | 0.01 | 66 | 1014.1 |
| 20260503175120 | 81 | 138 | 0.0 | 0.0 | 0.00 | 0.01 | 0.01 | 65 | 1014.2 |
| 20260503175015 | 81 | 134 | 0.0 | 0.0 | 0.00 | 0.01 | 0.01 | 67 | 1014.1 |
| 20260503174915 | 81 | 135 | 0.0 | 0.0 | 0.00 | 0.01 | 0.01 | 67 | 1014.3 |
| 20260503174816 | 81 | 131 | 0.0 | 0.0 | 0.00 | 0.01 | 0.01 | 68 | 1014.3 |
| 20260503174716 | 81 | 130 | 0.0 | 0.0 | 0.00 | 0.01 | 0.01 | 68 | 1014.2 |
| 20260503174616 | 81 | 152 | 0.0 | 0.0 | 0.00 | 0.01 | 0.01 | 68 | 1014.3 |
| 20260503174516 | 81 | 151 | 0.0 | 0.0 | 0.00 | 0.01 | 0.01 | 68 | 1014.3 |
| 20260503174416 | 80 | 244 | 0.0 | 0.0 | 0.00 | 0.01 | 0.01 | 68 | 1014.3 |
| 20260503174315 | 80 | 102 | 0.0 | 0.0 | 0.00 | 0.01 | 0.01 | 69 | 1014.4 |
| 20260503174215 | 80 | 151 | 0.0 | 0.0 | 0.00 | 0.01 | 0.01 | 69 | 1014.4 |
| 20260503174114 | 80 | 149 | 0.0 | 0.0 | 0.00 | 0.01 | 0.01 | 69 | 1014.3 |
| 20260503174015 | 80 | 151 | 0.0 | 1.0 | 0.00 | 0.01 | 0.01 | 69 | 1014.4 |
| 20260503173914 | 80 | 151 | 0.0 | 1.0 | 0.00 | 0.01 | 0.01 | 69 | 1014.4 |
| 20260503173815 | 80 | 151 | 0.0 | 2.0 | 0.00 | 0.01 | 0.01 | 69 | 1014.5 |
| 20260503173715 | 79 | 151 | 0.0 | 2.0 | 0.00 | 0.01 | 0.01 | 68 | 1014.5 |
| 20260503173613 | 79 | 151 | 0.0 | 2.0 | 0.00 | 0.01 | 0.01 | 68 | 1014.5 |
| 20260503173515 | 79 | 151 | 0.0 | 2.0 | 0.00 | 0.01 | 0.01 | 68 | 1014.5 |
| 20260503173416 | 79 | 130 | 0.0 | 2.0 | 0.00 | 0.01 | 0.01 | 68 | 1014.6 |
| 20260503173316 | 79 | 130 | 0.0 | 2.0 | 0.00 | 0.01 | 0.01 | 68 | 1014.5 |
| 20260503173214 | 79 | 223 | 0.0 | 3.0 | 0.00 | 0.01 | 0.01 | 67 | 1014.6 |
| 20260503173114 | 79 | 220 | 0.0 | 5.0 | 0.00 | 0.01 | 0.01 | 67 | 1014.6 |
| 20260503173015 | 79 | 251 | 0.0 | 5.0 | 0.00 | 0.01 | 0.01 | 67 | 1014.6 |
| 20260503172913 | 79 | 252 | 1.0 | 5.0 | 0.00 | 0.01 | 0.01 | 67 | 1014.6 |
| 20260503172813 | 79 | 261 | 1.0 | 5.0 | 0.00 | 0.01 | 0.01 | 67 | 1014.7 |
| 20260503172714 | 79 | 264 | 1.0 | 5.0 | 0.00 | 0.01 | 0.01 | 67 | 1014.7 |
| 20260503172614 | 79 | 155 | 1.0 | 5.0 | 0.00 | 0.01 | 0.01 | 68 | 1014.7 |
| 20260503172515 | 80 | 154 | 1.0 | 5.0 | 0.00 | 0.01 | 0.01 | 68 | 1014.8 |
| 20260503172415 | 80 | 152 | 1.0 | 5.0 | 0.00 | 0.01 | 0.01 | 68 | 1014.7 |
| 20260503172313 | 79 | 152 | 2.0 | 5.0 | 0.00 | 0.01 | 0.01 | 68 | 1014.8 |
| 20260503172213 | 79 | 75 | 2.0 | 5.0 | 0.00 | 0.01 | 0.01 | 68 | 1014.7 |
| 20260503172114 | 80 | 207 | 1.0 | 3.0 | 0.00 | 0.01 | 0.01 | 68 | 1014.8 |
| 20260503172014 | 80 | 212 | 1.0 | 2.0 | 0.00 | 0.01 | 0.01 | 68 | 1014.8 |
| 20260503171914 | 79 | 212 | 1.0 | 2.0 | 0.00 | 0.01 | 0.01 | 67 | 1014.8 |
| 20260503171813 | 79 | 212 | 0.0 | 3.0 | 0.00 | 0.01 | 0.01 | 68 | 1014.8 |
| 20260503171714 | 80 | 212 | 0.0 | 3.0 | 0.00 | 0.01 | 0.01 | 68 | 1014.8 |
| 20260503171613 | 79 | 210 | 1.0 | 3.0 | 0.00 | 0.01 | 0.01 | 68 | 1014.8 |
| 20260503171514 | 79 | 223 | 1.0 | 3.0 | 0.00 | 0.01 | 0.01 | 68 | 1014.9 |
| 20260503171413 | 79 | 223 | 0.0 | 3.0 | 0.00 | 0.01 | 0.01 | 68 | 1014.9 |
| 20260503171315 | 79 | 233 | 0.0 | 3.0 | 0.00 | 0.01 | 0.01 | 68 | 1014.9 |
| 20260503171213 | 79 | 207 | 0.0 | 3.0 | 0.00 | 0.01 | 0.01 | 67 | 1014.9 |
| 20260503171114 | 79 | 175 | 1.0 | 3.0 | 0.00 | 0.01 | 0.01 | 67 | 1014.9 |
| 20260503171014 | 79 | 175 | 1.0 | 3.0 | 0.00 | 0.01 | 0.01 | 67 | 1015.0 |
| 20260503170913 | 79 | 169 | 2.0 | 3.0 | 0.00 | 0.01 | 0.01 | 68 | 1014.9 |
| 20260503170815 | 79 | 299 | 2.0 | 3.0 | 0.00 | 0.01 | 0.01 | 69 | 1014.9 |
| 20260503170714 | 79 | 71 | 1.0 | 2.0 | 0.00 | 0.01 | 0.01 | 68 | 1014.9 |
| 20260503170615 | 79 | 130 | 0.0 | 2.0 | 0.00 | 0.01 | 0.01 | 68 | 1015.0 |
| 20260503170515 | 79 | 130 | 0.0 | 2.0 | 0.00 | 0.01 | 0.01 | 68 | 1015.0 |
| 20260503170415 | 79 | 128 | 0.0 | 2.0 | 0.00 | 0.01 | 0.01 | 68 | 1015.0 |
| 20260503170313 | 79 | 128 | 0.0 | 2.0 | 0.00 | 0.01 | 0.01 | 68 | 1014.9 |
| 20260503170213 | 79 | 175 | 0.0 | 2.0 | 0.00 | 0.01 | 0.01 | 69 | 1014.9 |
| 20260503170114 | 79 | 176 | 0.0 | 2.0 | 0.00 | 0.01 | 0.01 | 68 | 1015.0 |